<?xml version="1.0" encoding="UTF-8" standalone="no" ?>
<gpx xmlns="http://www.topografix.com/GPX/1/1" xmlns:xsi="http://www.w3.org/2001/XMLSchema-instance" xsi:schemaLocation="http://www.topografix.com/GPX/1/1 http://www.topografix.com/GPX/1/1/gpx.xsd" version="1.1" creator="VisuGPX - https://www.visugpx.com">
  <metadata>
    <name>2023-03-22 M. Garbella</name>
  </metadata>
  <trk>
    <name><![CDATA[2023-03-22 11:27:42]]></name>
    <trkseg>
      <trkpt lat="44.19826" lon="7.49618">
        <ele>1372.42</ele>
        <time>2023-03-22T07:34:32Z</time>
      </trkpt>
      <trkpt lat="44.19823" lon="7.49614">
        <ele>1377.71</ele>
        <time>2023-03-22T07:34:51Z</time>
      </trkpt>
      <trkpt lat="44.19824" lon="7.49614">
        <ele>1378.19</ele>
        <time>2023-03-22T07:35:04Z</time>
      </trkpt>
      <trkpt lat="44.19823" lon="7.49614">
        <ele>1381.07</ele>
        <time>2023-03-22T07:35:27Z</time>
      </trkpt>
      <trkpt lat="44.19823" lon="7.49611">
        <ele>1382.03</ele>
        <time>2023-03-22T07:35:53Z</time>
      </trkpt>
      <trkpt lat="44.19823" lon="7.49612">
        <ele>1384.92</ele>
        <time>2023-03-22T07:36:15Z</time>
      </trkpt>
      <trkpt lat="44.19822" lon="7.49614">
        <ele>1385.4</ele>
        <time>2023-03-22T07:36:31Z</time>
      </trkpt>
      <trkpt lat="44.19821" lon="7.49617">
        <ele>1384.92</ele>
        <time>2023-03-22T07:36:45Z</time>
      </trkpt>
      <trkpt lat="44.19822" lon="7.49618">
        <ele>1386.36</ele>
        <time>2023-03-22T07:37:05Z</time>
      </trkpt>
      <trkpt lat="44.19818" lon="7.4962">
        <ele>1386.36</ele>
        <time>2023-03-22T07:37:16Z</time>
      </trkpt>
      <trkpt lat="44.19811" lon="7.49624">
        <ele>1384.44</ele>
        <time>2023-03-22T07:37:32Z</time>
      </trkpt>
      <trkpt lat="44.19812" lon="7.49617">
        <ele>1384.92</ele>
        <time>2023-03-22T07:37:45Z</time>
      </trkpt>
      <trkpt lat="44.19812" lon="7.49609">
        <ele>1387.8</ele>
        <time>2023-03-22T07:37:59Z</time>
      </trkpt>
      <trkpt lat="44.19811" lon="7.49608">
        <ele>1389.24</ele>
        <time>2023-03-22T07:38:14Z</time>
      </trkpt>
      <trkpt lat="44.19813" lon="7.49606">
        <ele>1388.76</ele>
        <time>2023-03-22T07:38:27Z</time>
      </trkpt>
      <trkpt lat="44.19811" lon="7.49606">
        <ele>1390.68</ele>
        <time>2023-03-22T07:38:44Z</time>
      </trkpt>
      <trkpt lat="44.19812" lon="7.49602">
        <ele>1390.2</ele>
        <time>2023-03-22T07:38:54Z</time>
      </trkpt>
      <trkpt lat="44.19811" lon="7.49594">
        <ele>1392.13</ele>
        <time>2023-03-22T07:39:05Z</time>
      </trkpt>
      <trkpt lat="44.19808" lon="7.49584">
        <ele>1392.61</ele>
        <time>2023-03-22T07:39:16Z</time>
      </trkpt>
      <trkpt lat="44.19804" lon="7.49578">
        <ele>1394.05</ele>
        <time>2023-03-22T07:39:27Z</time>
      </trkpt>
      <trkpt lat="44.19805" lon="7.49576">
        <ele>1395.01</ele>
        <time>2023-03-22T07:39:38Z</time>
      </trkpt>
      <trkpt lat="44.19805" lon="7.49568">
        <ele>1396.45</ele>
        <time>2023-03-22T07:39:47Z</time>
      </trkpt>
      <trkpt lat="44.19806" lon="7.49562">
        <ele>1396.93</ele>
        <time>2023-03-22T07:39:59Z</time>
      </trkpt>
      <trkpt lat="44.19807" lon="7.49562">
        <ele>1393.57</ele>
        <time>2023-03-22T07:40:28Z</time>
      </trkpt>
      <trkpt lat="44.19804" lon="7.49565">
        <ele>1391.17</ele>
        <time>2023-03-22T07:40:53Z</time>
      </trkpt>
      <trkpt lat="44.19808" lon="7.49562">
        <ele>1396.93</ele>
        <time>2023-03-22T07:41:20Z</time>
      </trkpt>
      <trkpt lat="44.19805" lon="7.49562">
        <ele>1404.62</ele>
        <time>2023-03-22T07:41:44Z</time>
      </trkpt>
      <trkpt lat="44.19806" lon="7.49561">
        <ele>1403.18</ele>
        <time>2023-03-22T07:41:57Z</time>
      </trkpt>
      <trkpt lat="44.1981" lon="7.4955">
        <ele>1404.62</ele>
        <time>2023-03-22T07:42:15Z</time>
      </trkpt>
      <trkpt lat="44.19811" lon="7.49538">
        <ele>1404.14</ele>
        <time>2023-03-22T07:42:27Z</time>
      </trkpt>
      <trkpt lat="44.1981" lon="7.49524">
        <ele>1404.62</ele>
        <time>2023-03-22T07:42:42Z</time>
      </trkpt>
      <trkpt lat="44.19804" lon="7.49523">
        <ele>1406.55</ele>
        <time>2023-03-22T07:42:53Z</time>
      </trkpt>
      <trkpt lat="44.19796" lon="7.49521">
        <ele>1408.47</ele>
        <time>2023-03-22T07:43:07Z</time>
      </trkpt>
      <trkpt lat="44.19793" lon="7.49514">
        <ele>1409.91</ele>
        <time>2023-03-22T07:43:20Z</time>
      </trkpt>
      <trkpt lat="44.19792" lon="7.495">
        <ele>1413.76</ele>
        <time>2023-03-22T07:43:39Z</time>
      </trkpt>
      <trkpt lat="44.19782" lon="7.49499">
        <ele>1416.16</ele>
        <time>2023-03-22T07:43:53Z</time>
      </trkpt>
      <trkpt lat="44.19779" lon="7.495">
        <ele>1417.12</ele>
        <time>2023-03-22T07:43:58Z</time>
      </trkpt>
      <trkpt lat="44.19774" lon="7.49502">
        <ele>1418.56</ele>
        <time>2023-03-22T07:44:04Z</time>
      </trkpt>
      <trkpt lat="44.19769" lon="7.49504">
        <ele>1419.04</ele>
        <time>2023-03-22T07:44:11Z</time>
      </trkpt>
      <trkpt lat="44.19761" lon="7.49504">
        <ele>1421.93</ele>
        <time>2023-03-22T07:44:24Z</time>
      </trkpt>
      <trkpt lat="44.19752" lon="7.49505">
        <ele>1422.41</ele>
        <time>2023-03-22T07:44:38Z</time>
      </trkpt>
      <trkpt lat="44.19748" lon="7.49504">
        <ele>1423.85</ele>
        <time>2023-03-22T07:44:50Z</time>
      </trkpt>
      <trkpt lat="44.19748" lon="7.49503">
        <ele>1423.85</ele>
        <time>2023-03-22T07:44:53Z</time>
      </trkpt>
      <trkpt lat="44.19749" lon="7.49494">
        <ele>1425.29</ele>
        <time>2023-03-22T07:45:08Z</time>
      </trkpt>
      <trkpt lat="44.19749" lon="7.49485">
        <ele>1426.25</ele>
        <time>2023-03-22T07:45:21Z</time>
      </trkpt>
      <trkpt lat="44.19745" lon="7.49486">
        <ele>1426.73</ele>
        <time>2023-03-22T07:45:39Z</time>
      </trkpt>
      <trkpt lat="44.19741" lon="7.49486">
        <ele>1428.18</ele>
        <time>2023-03-22T07:45:47Z</time>
      </trkpt>
      <trkpt lat="44.19732" lon="7.4949">
        <ele>1430.58</ele>
        <time>2023-03-22T07:46:00Z</time>
      </trkpt>
      <trkpt lat="44.19721" lon="7.49498">
        <ele>1431.54</ele>
        <time>2023-03-22T07:46:13Z</time>
      </trkpt>
      <trkpt lat="44.19711" lon="7.49505">
        <ele>1432.02</ele>
        <time>2023-03-22T07:46:28Z</time>
      </trkpt>
      <trkpt lat="44.19705" lon="7.49508">
        <ele>1430.58</ele>
        <time>2023-03-22T07:46:37Z</time>
      </trkpt>
      <trkpt lat="44.19695" lon="7.49511">
        <ele>1433.46</ele>
        <time>2023-03-22T07:46:52Z</time>
      </trkpt>
      <trkpt lat="44.19695" lon="7.49512">
        <ele>1436.83</ele>
        <time>2023-03-22T07:47:04Z</time>
      </trkpt>
      <trkpt lat="44.19694" lon="7.49513">
        <ele>1436.83</ele>
        <time>2023-03-22T07:47:19Z</time>
      </trkpt>
      <trkpt lat="44.19696" lon="7.49515">
        <ele>1436.83</ele>
        <time>2023-03-22T07:47:44Z</time>
      </trkpt>
      <trkpt lat="44.19695" lon="7.49506">
        <ele>1433.94</ele>
        <time>2023-03-22T07:48:10Z</time>
      </trkpt>
      <trkpt lat="44.19693" lon="7.495">
        <ele>1435.87</ele>
        <time>2023-03-22T07:48:18Z</time>
      </trkpt>
      <trkpt lat="44.19683" lon="7.49497">
        <ele>1438.27</ele>
        <time>2023-03-22T07:48:32Z</time>
      </trkpt>
      <trkpt lat="44.19676" lon="7.49497">
        <ele>1439.23</ele>
        <time>2023-03-22T07:48:44Z</time>
      </trkpt>
      <trkpt lat="44.19668" lon="7.49496">
        <ele>1439.71</ele>
        <time>2023-03-22T07:48:56Z</time>
      </trkpt>
      <trkpt lat="44.19663" lon="7.49497">
        <ele>1441.15</ele>
        <time>2023-03-22T07:49:04Z</time>
      </trkpt>
      <trkpt lat="44.19653" lon="7.495">
        <ele>1444.52</ele>
        <time>2023-03-22T07:49:18Z</time>
      </trkpt>
      <trkpt lat="44.1965" lon="7.49497">
        <ele>1447.88</ele>
        <time>2023-03-22T07:49:32Z</time>
      </trkpt>
      <trkpt lat="44.19646" lon="7.49492">
        <ele>1451.25</ele>
        <time>2023-03-22T07:49:42Z</time>
      </trkpt>
      <trkpt lat="44.1964" lon="7.4949">
        <ele>1454.61</ele>
        <time>2023-03-22T07:49:55Z</time>
      </trkpt>
      <trkpt lat="44.19635" lon="7.49494">
        <ele>1457.5</ele>
        <time>2023-03-22T07:50:10Z</time>
      </trkpt>
      <trkpt lat="44.19635" lon="7.49486">
        <ele>1458.46</ele>
        <time>2023-03-22T07:50:24Z</time>
      </trkpt>
      <trkpt lat="44.19633" lon="7.49475">
        <ele>1458.94</ele>
        <time>2023-03-22T07:50:35Z</time>
      </trkpt>
      <trkpt lat="44.1963" lon="7.49465">
        <ele>1461.82</ele>
        <time>2023-03-22T07:50:52Z</time>
      </trkpt>
      <trkpt lat="44.1963" lon="7.49455">
        <ele>1465.19</ele>
        <time>2023-03-22T07:51:10Z</time>
      </trkpt>
      <trkpt lat="44.19629" lon="7.49445">
        <ele>1468.07</ele>
        <time>2023-03-22T07:51:24Z</time>
      </trkpt>
      <trkpt lat="44.19626" lon="7.49446">
        <ele>1469.51</ele>
        <time>2023-03-22T07:51:28Z</time>
      </trkpt>
      <trkpt lat="44.19615" lon="7.4945">
        <ele>1472.88</ele>
        <time>2023-03-22T07:51:40Z</time>
      </trkpt>
      <trkpt lat="44.19605" lon="7.49455">
        <ele>1473.84</ele>
        <time>2023-03-22T07:51:55Z</time>
      </trkpt>
      <trkpt lat="44.19599" lon="7.49454">
        <ele>1475.28</ele>
        <time>2023-03-22T07:52:10Z</time>
      </trkpt>
      <trkpt lat="44.19599" lon="7.49447">
        <ele>1477.2</ele>
        <time>2023-03-22T07:52:27Z</time>
      </trkpt>
      <trkpt lat="44.19597" lon="7.49441">
        <ele>1477.2</ele>
        <time>2023-03-22T07:52:42Z</time>
      </trkpt>
      <trkpt lat="44.19595" lon="7.49433">
        <ele>1478.16</ele>
        <time>2023-03-22T07:52:57Z</time>
      </trkpt>
      <trkpt lat="44.19592" lon="7.49426">
        <ele>1480.57</ele>
        <time>2023-03-22T07:53:08Z</time>
      </trkpt>
      <trkpt lat="44.19584" lon="7.49426">
        <ele>1483.45</ele>
        <time>2023-03-22T07:53:20Z</time>
      </trkpt>
      <trkpt lat="44.19576" lon="7.49423">
        <ele>1484.41</ele>
        <time>2023-03-22T07:53:31Z</time>
      </trkpt>
      <trkpt lat="44.19569" lon="7.4942">
        <ele>1490.18</ele>
        <time>2023-03-22T07:53:49Z</time>
      </trkpt>
      <trkpt lat="44.19563" lon="7.49416">
        <ele>1491.14</ele>
        <time>2023-03-22T07:54:04Z</time>
      </trkpt>
      <trkpt lat="44.19557" lon="7.49411">
        <ele>1491.14</ele>
        <time>2023-03-22T07:54:15Z</time>
      </trkpt>
      <trkpt lat="44.19554" lon="7.49408">
        <ele>1492.58</ele>
        <time>2023-03-22T07:54:26Z</time>
      </trkpt>
      <trkpt lat="44.19559" lon="7.49404">
        <ele>1494.99</ele>
        <time>2023-03-22T07:54:40Z</time>
      </trkpt>
      <trkpt lat="44.19561" lon="7.49389">
        <ele>1494.99</ele>
        <time>2023-03-22T07:54:55Z</time>
      </trkpt>
      <trkpt lat="44.19561" lon="7.49377">
        <ele>1496.43</ele>
        <time>2023-03-22T07:55:11Z</time>
      </trkpt>
      <trkpt lat="44.1956" lon="7.49366">
        <ele>1497.87</ele>
        <time>2023-03-22T07:55:28Z</time>
      </trkpt>
      <trkpt lat="44.19551" lon="7.49355">
        <ele>1502.68</ele>
        <time>2023-03-22T07:55:46Z</time>
      </trkpt>
      <trkpt lat="44.19543" lon="7.49357">
        <ele>1504.6</ele>
        <time>2023-03-22T07:55:58Z</time>
      </trkpt>
      <trkpt lat="44.19537" lon="7.49358">
        <ele>1505.08</ele>
        <time>2023-03-22T07:56:05Z</time>
      </trkpt>
      <trkpt lat="44.19534" lon="7.49361">
        <ele>1506.52</ele>
        <time>2023-03-22T07:56:17Z</time>
      </trkpt>
      <trkpt lat="44.19535" lon="7.49349">
        <ele>1507</ele>
        <time>2023-03-22T07:56:33Z</time>
      </trkpt>
      <trkpt lat="44.19535" lon="7.49339">
        <ele>1509.89</ele>
        <time>2023-03-22T07:56:48Z</time>
      </trkpt>
      <trkpt lat="44.19532" lon="7.49329">
        <ele>1512.29</ele>
        <time>2023-03-22T07:57:00Z</time>
      </trkpt>
      <trkpt lat="44.19533" lon="7.49328">
        <ele>1513.73</ele>
        <time>2023-03-22T07:57:15Z</time>
      </trkpt>
      <trkpt lat="44.19535" lon="7.49328">
        <ele>1513.25</ele>
        <time>2023-03-22T07:57:29Z</time>
      </trkpt>
      <trkpt lat="44.19537" lon="7.49333">
        <ele>1516.14</ele>
        <time>2023-03-22T07:57:54Z</time>
      </trkpt>
      <trkpt lat="44.19536" lon="7.49327">
        <ele>1518.54</ele>
        <time>2023-03-22T07:58:12Z</time>
      </trkpt>
      <trkpt lat="44.19536" lon="7.49326">
        <ele>1515.66</ele>
        <time>2023-03-22T07:58:28Z</time>
      </trkpt>
      <trkpt lat="44.19543" lon="7.49317">
        <ele>1515.66</ele>
        <time>2023-03-22T07:59:02Z</time>
      </trkpt>
      <trkpt lat="44.19536" lon="7.49321">
        <ele>1515.66</ele>
        <time>2023-03-22T07:59:25Z</time>
      </trkpt>
      <trkpt lat="44.19538" lon="7.49315">
        <ele>1515.18</ele>
        <time>2023-03-22T07:59:40Z</time>
      </trkpt>
      <trkpt lat="44.19533" lon="7.49311">
        <ele>1516.14</ele>
        <time>2023-03-22T07:59:53Z</time>
      </trkpt>
      <trkpt lat="44.19524" lon="7.4932">
        <ele>1516.62</ele>
        <time>2023-03-22T08:00:08Z</time>
      </trkpt>
      <trkpt lat="44.19521" lon="7.4932">
        <ele>1516.62</ele>
        <time>2023-03-22T08:00:12Z</time>
      </trkpt>
      <trkpt lat="44.19518" lon="7.49311">
        <ele>1518.06</ele>
        <time>2023-03-22T08:00:27Z</time>
      </trkpt>
      <trkpt lat="44.19522" lon="7.49299">
        <ele>1518.06</ele>
        <time>2023-03-22T08:00:45Z</time>
      </trkpt>
      <trkpt lat="44.19524" lon="7.49288">
        <ele>1519.98</ele>
        <time>2023-03-22T08:01:00Z</time>
      </trkpt>
      <trkpt lat="44.19516" lon="7.4928">
        <ele>1519.98</ele>
        <time>2023-03-22T08:01:15Z</time>
      </trkpt>
      <trkpt lat="44.19521" lon="7.49266">
        <ele>1524.31</ele>
        <time>2023-03-22T08:01:32Z</time>
      </trkpt>
      <trkpt lat="44.19524" lon="7.49262">
        <ele>1525.27</ele>
        <time>2023-03-22T08:01:47Z</time>
      </trkpt>
      <trkpt lat="44.1953" lon="7.49257">
        <ele>1526.71</ele>
        <time>2023-03-22T08:02:02Z</time>
      </trkpt>
      <trkpt lat="44.19535" lon="7.49252">
        <ele>1528.63</ele>
        <time>2023-03-22T08:02:14Z</time>
      </trkpt>
      <trkpt lat="44.19529" lon="7.49245">
        <ele>1529.11</ele>
        <time>2023-03-22T08:02:26Z</time>
      </trkpt>
      <trkpt lat="44.19524" lon="7.49235">
        <ele>1531.04</ele>
        <time>2023-03-22T08:02:39Z</time>
      </trkpt>
      <trkpt lat="44.19518" lon="7.49232">
        <ele>1534.4</ele>
        <time>2023-03-22T08:02:56Z</time>
      </trkpt>
      <trkpt lat="44.19522" lon="7.49228">
        <ele>1536.32</ele>
        <time>2023-03-22T08:03:11Z</time>
      </trkpt>
      <trkpt lat="44.19522" lon="7.49225">
        <ele>1540.17</ele>
        <time>2023-03-22T08:03:25Z</time>
      </trkpt>
      <trkpt lat="44.19511" lon="7.49218">
        <ele>1544.5</ele>
        <time>2023-03-22T08:03:41Z</time>
      </trkpt>
      <trkpt lat="44.19512" lon="7.49208">
        <ele>1546.42</ele>
        <time>2023-03-22T08:03:56Z</time>
      </trkpt>
      <trkpt lat="44.19516" lon="7.49207">
        <ele>1548.82</ele>
        <time>2023-03-22T08:04:10Z</time>
      </trkpt>
      <trkpt lat="44.1952" lon="7.49201">
        <ele>1551.22</ele>
        <time>2023-03-22T08:04:23Z</time>
      </trkpt>
      <trkpt lat="44.19515" lon="7.49195">
        <ele>1552.19</ele>
        <time>2023-03-22T08:04:36Z</time>
      </trkpt>
      <trkpt lat="44.19503" lon="7.49192">
        <ele>1553.15</ele>
        <time>2023-03-22T08:04:50Z</time>
      </trkpt>
      <trkpt lat="44.19496" lon="7.4919">
        <ele>1551.71</ele>
        <time>2023-03-22T08:05:05Z</time>
      </trkpt>
      <trkpt lat="44.19491" lon="7.49181">
        <ele>1550.26</ele>
        <time>2023-03-22T08:05:21Z</time>
      </trkpt>
      <trkpt lat="44.19483" lon="7.49191">
        <ele>1553.63</ele>
        <time>2023-03-22T08:05:34Z</time>
      </trkpt>
      <trkpt lat="44.19477" lon="7.49192">
        <ele>1560.84</ele>
        <time>2023-03-22T08:05:51Z</time>
      </trkpt>
      <trkpt lat="44.19477" lon="7.49184">
        <ele>1564.68</ele>
        <time>2023-03-22T08:06:10Z</time>
      </trkpt>
      <trkpt lat="44.19483" lon="7.49173">
        <ele>1569.01</ele>
        <time>2023-03-22T08:06:27Z</time>
      </trkpt>
      <trkpt lat="44.19486" lon="7.49164">
        <ele>1570.45</ele>
        <time>2023-03-22T08:06:45Z</time>
      </trkpt>
      <trkpt lat="44.19488" lon="7.49154">
        <ele>1574.78</ele>
        <time>2023-03-22T08:07:02Z</time>
      </trkpt>
      <trkpt lat="44.19479" lon="7.4915">
        <ele>1575.26</ele>
        <time>2023-03-22T08:07:20Z</time>
      </trkpt>
      <trkpt lat="44.1948" lon="7.49144">
        <ele>1579.1</ele>
        <time>2023-03-22T08:07:38Z</time>
      </trkpt>
      <trkpt lat="44.19482" lon="7.49144">
        <ele>1582.47</ele>
        <time>2023-03-22T08:07:54Z</time>
      </trkpt>
      <trkpt lat="44.19481" lon="7.49143">
        <ele>1584.39</ele>
        <time>2023-03-22T08:08:10Z</time>
      </trkpt>
      <trkpt lat="44.19479" lon="7.49141">
        <ele>1582.95</ele>
        <time>2023-03-22T08:08:25Z</time>
      </trkpt>
      <trkpt lat="44.19484" lon="7.49133">
        <ele>1583.91</ele>
        <time>2023-03-22T08:08:41Z</time>
      </trkpt>
      <trkpt lat="44.19488" lon="7.49122">
        <ele>1586.79</ele>
        <time>2023-03-22T08:08:59Z</time>
      </trkpt>
      <trkpt lat="44.19486" lon="7.4912">
        <ele>1588.24</ele>
        <time>2023-03-22T08:09:16Z</time>
      </trkpt>
      <trkpt lat="44.19485" lon="7.49116">
        <ele>1588.72</ele>
        <time>2023-03-22T08:09:32Z</time>
      </trkpt>
      <trkpt lat="44.19485" lon="7.49107">
        <ele>1589.68</ele>
        <time>2023-03-22T08:09:55Z</time>
      </trkpt>
      <trkpt lat="44.19481" lon="7.49092">
        <ele>1594.96</ele>
        <time>2023-03-22T08:10:14Z</time>
      </trkpt>
      <trkpt lat="44.19479" lon="7.49089">
        <ele>1595.45</ele>
        <time>2023-03-22T08:10:17Z</time>
      </trkpt>
      <trkpt lat="44.19471" lon="7.49087">
        <ele>1598.33</ele>
        <time>2023-03-22T08:10:30Z</time>
      </trkpt>
      <trkpt lat="44.19464" lon="7.49082">
        <ele>1601.69</ele>
        <time>2023-03-22T08:10:43Z</time>
      </trkpt>
      <trkpt lat="44.19456" lon="7.4908">
        <ele>1604.58</ele>
        <time>2023-03-22T08:10:55Z</time>
      </trkpt>
      <trkpt lat="44.19448" lon="7.49081">
        <ele>1607.46</ele>
        <time>2023-03-22T08:11:11Z</time>
      </trkpt>
      <trkpt lat="44.19439" lon="7.49077">
        <ele>1614.67</ele>
        <time>2023-03-22T08:11:32Z</time>
      </trkpt>
      <trkpt lat="44.19432" lon="7.49071">
        <ele>1619</ele>
        <time>2023-03-22T08:11:46Z</time>
      </trkpt>
      <trkpt lat="44.19429" lon="7.49061">
        <ele>1617.07</ele>
        <time>2023-03-22T08:12:01Z</time>
      </trkpt>
      <trkpt lat="44.1942" lon="7.49055">
        <ele>1615.63</ele>
        <time>2023-03-22T08:12:16Z</time>
      </trkpt>
      <trkpt lat="44.19417" lon="7.49049">
        <ele>1616.59</ele>
        <time>2023-03-22T08:12:31Z</time>
      </trkpt>
      <trkpt lat="44.19407" lon="7.49042">
        <ele>1618.04</ele>
        <time>2023-03-22T08:12:50Z</time>
      </trkpt>
      <trkpt lat="44.19405" lon="7.49039">
        <ele>1618.52</ele>
        <time>2023-03-22T08:12:54Z</time>
      </trkpt>
      <trkpt lat="44.19403" lon="7.49029">
        <ele>1618.52</ele>
        <time>2023-03-22T08:13:09Z</time>
      </trkpt>
      <trkpt lat="44.19401" lon="7.49021">
        <ele>1619.96</ele>
        <time>2023-03-22T08:13:22Z</time>
      </trkpt>
      <trkpt lat="44.19395" lon="7.49015">
        <ele>1621.4</ele>
        <time>2023-03-22T08:13:35Z</time>
      </trkpt>
      <trkpt lat="44.19389" lon="7.49007">
        <ele>1621.4</ele>
        <time>2023-03-22T08:13:48Z</time>
      </trkpt>
      <trkpt lat="44.19383" lon="7.49005">
        <ele>1622.36</ele>
        <time>2023-03-22T08:13:57Z</time>
      </trkpt>
      <trkpt lat="44.19371" lon="7.48998">
        <ele>1625.25</ele>
        <time>2023-03-22T08:14:12Z</time>
      </trkpt>
      <trkpt lat="44.19363" lon="7.48994">
        <ele>1624.77</ele>
        <time>2023-03-22T08:14:25Z</time>
      </trkpt>
      <trkpt lat="44.19356" lon="7.48986">
        <ele>1627.17</ele>
        <time>2023-03-22T08:14:38Z</time>
      </trkpt>
      <trkpt lat="44.1935" lon="7.48977">
        <ele>1627.17</ele>
        <time>2023-03-22T08:14:51Z</time>
      </trkpt>
      <trkpt lat="44.19341" lon="7.48968">
        <ele>1627.17</ele>
        <time>2023-03-22T08:15:06Z</time>
      </trkpt>
      <trkpt lat="44.19334" lon="7.48958">
        <ele>1631.01</ele>
        <time>2023-03-22T08:15:20Z</time>
      </trkpt>
      <trkpt lat="44.19327" lon="7.48949">
        <ele>1633.9</ele>
        <time>2023-03-22T08:15:35Z</time>
      </trkpt>
      <trkpt lat="44.1932" lon="7.4894">
        <ele>1634.38</ele>
        <time>2023-03-22T08:15:48Z</time>
      </trkpt>
      <trkpt lat="44.19313" lon="7.48929">
        <ele>1634.86</ele>
        <time>2023-03-22T08:16:03Z</time>
      </trkpt>
      <trkpt lat="44.19307" lon="7.4892">
        <ele>1636.78</ele>
        <time>2023-03-22T08:16:16Z</time>
      </trkpt>
      <trkpt lat="44.19301" lon="7.48909">
        <ele>1639.19</ele>
        <time>2023-03-22T08:16:31Z</time>
      </trkpt>
      <trkpt lat="44.19296" lon="7.48903">
        <ele>1641.11</ele>
        <time>2023-03-22T08:16:44Z</time>
      </trkpt>
      <trkpt lat="44.1929" lon="7.48894">
        <ele>1643.51</ele>
        <time>2023-03-22T08:17:02Z</time>
      </trkpt>
      <trkpt lat="44.19283" lon="7.48889">
        <ele>1648.32</ele>
        <time>2023-03-22T08:17:14Z</time>
      </trkpt>
      <trkpt lat="44.19277" lon="7.48883">
        <ele>1650.72</ele>
        <time>2023-03-22T08:17:27Z</time>
      </trkpt>
      <trkpt lat="44.19273" lon="7.48873">
        <ele>1651.2</ele>
        <time>2023-03-22T08:17:40Z</time>
      </trkpt>
      <trkpt lat="44.19271" lon="7.48864">
        <ele>1650.72</ele>
        <time>2023-03-22T08:17:52Z</time>
      </trkpt>
      <trkpt lat="44.19267" lon="7.48853">
        <ele>1649.76</ele>
        <time>2023-03-22T08:18:08Z</time>
      </trkpt>
      <trkpt lat="44.19264" lon="7.48845">
        <ele>1650.24</ele>
        <time>2023-03-22T08:18:23Z</time>
      </trkpt>
      <trkpt lat="44.19261" lon="7.4884">
        <ele>1656.01</ele>
        <time>2023-03-22T08:18:36Z</time>
      </trkpt>
      <trkpt lat="44.1926" lon="7.4883">
        <ele>1657.93</ele>
        <time>2023-03-22T08:18:52Z</time>
      </trkpt>
      <trkpt lat="44.19257" lon="7.48822">
        <ele>1659.37</ele>
        <time>2023-03-22T08:19:06Z</time>
      </trkpt>
      <trkpt lat="44.19254" lon="7.48812">
        <ele>1663.7</ele>
        <time>2023-03-22T08:19:21Z</time>
      </trkpt>
      <trkpt lat="44.19252" lon="7.48801">
        <ele>1667.06</ele>
        <time>2023-03-22T08:19:39Z</time>
      </trkpt>
      <trkpt lat="44.1925" lon="7.48792">
        <ele>1669.47</ele>
        <time>2023-03-22T08:19:55Z</time>
      </trkpt>
      <trkpt lat="44.19248" lon="7.48783">
        <ele>1670.91</ele>
        <time>2023-03-22T08:20:11Z</time>
      </trkpt>
      <trkpt lat="44.19248" lon="7.48778">
        <ele>1672.83</ele>
        <time>2023-03-22T08:20:27Z</time>
      </trkpt>
      <trkpt lat="44.19247" lon="7.4877">
        <ele>1677.16</ele>
        <time>2023-03-22T08:20:42Z</time>
      </trkpt>
      <trkpt lat="44.19236" lon="7.48774">
        <ele>1679.56</ele>
        <time>2023-03-22T08:20:58Z</time>
      </trkpt>
      <trkpt lat="44.19231" lon="7.48777">
        <ele>1681.48</ele>
        <time>2023-03-22T08:21:12Z</time>
      </trkpt>
      <trkpt lat="44.19222" lon="7.48779">
        <ele>1685.33</ele>
        <time>2023-03-22T08:21:28Z</time>
      </trkpt>
      <trkpt lat="44.19216" lon="7.48779">
        <ele>1685.81</ele>
        <time>2023-03-22T08:21:43Z</time>
      </trkpt>
      <trkpt lat="44.19209" lon="7.4878">
        <ele>1687.25</ele>
        <time>2023-03-22T08:21:57Z</time>
      </trkpt>
      <trkpt lat="44.19206" lon="7.48773">
        <ele>1688.21</ele>
        <time>2023-03-22T08:22:12Z</time>
      </trkpt>
      <trkpt lat="44.19199" lon="7.48778">
        <ele>1690.14</ele>
        <time>2023-03-22T08:22:27Z</time>
      </trkpt>
      <trkpt lat="44.19191" lon="7.48783">
        <ele>1691.1</ele>
        <time>2023-03-22T08:22:41Z</time>
      </trkpt>
      <trkpt lat="44.19184" lon="7.48789">
        <ele>1696.38</ele>
        <time>2023-03-22T08:23:01Z</time>
      </trkpt>
      <trkpt lat="44.19185" lon="7.48779">
        <ele>1700.71</ele>
        <time>2023-03-22T08:23:16Z</time>
      </trkpt>
      <trkpt lat="44.19182" lon="7.48767">
        <ele>1704.55</ele>
        <time>2023-03-22T08:23:34Z</time>
      </trkpt>
      <trkpt lat="44.19181" lon="7.48759">
        <ele>1703.59</ele>
        <time>2023-03-22T08:23:49Z</time>
      </trkpt>
      <trkpt lat="44.19176" lon="7.48756">
        <ele>1705.04</ele>
        <time>2023-03-22T08:24:01Z</time>
      </trkpt>
      <trkpt lat="44.19169" lon="7.48759">
        <ele>1706.48</ele>
        <time>2023-03-22T08:24:14Z</time>
      </trkpt>
      <trkpt lat="44.19161" lon="7.48763">
        <ele>1710.32</ele>
        <time>2023-03-22T08:24:30Z</time>
      </trkpt>
      <trkpt lat="44.19159" lon="7.48762">
        <ele>1712.73</ele>
        <time>2023-03-22T08:24:45Z</time>
      </trkpt>
      <trkpt lat="44.19159" lon="7.48753">
        <ele>1712.25</ele>
        <time>2023-03-22T08:24:58Z</time>
      </trkpt>
      <trkpt lat="44.19156" lon="7.48746">
        <ele>1715.13</ele>
        <time>2023-03-22T08:25:14Z</time>
      </trkpt>
      <trkpt lat="44.19147" lon="7.48753">
        <ele>1718.01</ele>
        <time>2023-03-22T08:25:27Z</time>
      </trkpt>
      <trkpt lat="44.19147" lon="7.48745">
        <ele>1718.97</ele>
        <time>2023-03-22T08:25:42Z</time>
      </trkpt>
      <trkpt lat="44.19145" lon="7.48737">
        <ele>1721.86</ele>
        <time>2023-03-22T08:25:55Z</time>
      </trkpt>
      <trkpt lat="44.19139" lon="7.48742">
        <ele>1725.7</ele>
        <time>2023-03-22T08:26:10Z</time>
      </trkpt>
      <trkpt lat="44.19132" lon="7.48749">
        <ele>1728.11</ele>
        <time>2023-03-22T08:26:24Z</time>
      </trkpt>
      <trkpt lat="44.19126" lon="7.48756">
        <ele>1729.55</ele>
        <time>2023-03-22T08:26:36Z</time>
      </trkpt>
      <trkpt lat="44.1912" lon="7.48756">
        <ele>1734.84</ele>
        <time>2023-03-22T08:26:54Z</time>
      </trkpt>
      <trkpt lat="44.19116" lon="7.48755">
        <ele>1736.28</ele>
        <time>2023-03-22T08:27:00Z</time>
      </trkpt>
      <trkpt lat="44.19107" lon="7.48752">
        <ele>1736.76</ele>
        <time>2023-03-22T08:27:13Z</time>
      </trkpt>
      <trkpt lat="44.191" lon="7.4875">
        <ele>1735.8</ele>
        <time>2023-03-22T08:27:26Z</time>
      </trkpt>
      <trkpt lat="44.19093" lon="7.4875">
        <ele>1735.8</ele>
        <time>2023-03-22T08:27:38Z</time>
      </trkpt>
      <trkpt lat="44.19086" lon="7.4875">
        <ele>1739.16</ele>
        <time>2023-03-22T08:27:51Z</time>
      </trkpt>
      <trkpt lat="44.19081" lon="7.48748">
        <ele>1741.57</ele>
        <time>2023-03-22T08:28:03Z</time>
      </trkpt>
      <trkpt lat="44.19075" lon="7.48746">
        <ele>1744.45</ele>
        <time>2023-03-22T08:28:15Z</time>
      </trkpt>
      <trkpt lat="44.19072" lon="7.48745">
        <ele>1745.89</ele>
        <time>2023-03-22T08:28:33Z</time>
      </trkpt>
      <trkpt lat="44.19071" lon="7.48743">
        <ele>1747.33</ele>
        <time>2023-03-22T08:28:53Z</time>
      </trkpt>
      <trkpt lat="44.19061" lon="7.48739">
        <ele>1751.18</ele>
        <time>2023-03-22T08:29:08Z</time>
      </trkpt>
      <trkpt lat="44.19053" lon="7.48736">
        <ele>1753.58</ele>
        <time>2023-03-22T08:29:22Z</time>
      </trkpt>
      <trkpt lat="44.19045" lon="7.48729">
        <ele>1755.02</ele>
        <time>2023-03-22T08:29:36Z</time>
      </trkpt>
      <trkpt lat="44.19038" lon="7.48721">
        <ele>1755.99</ele>
        <time>2023-03-22T08:29:52Z</time>
      </trkpt>
      <trkpt lat="44.19032" lon="7.48711">
        <ele>1758.87</ele>
        <time>2023-03-22T08:30:08Z</time>
      </trkpt>
      <trkpt lat="44.19032" lon="7.48697">
        <ele>1758.39</ele>
        <time>2023-03-22T08:30:24Z</time>
      </trkpt>
      <trkpt lat="44.1903" lon="7.48689">
        <ele>1758.87</ele>
        <time>2023-03-22T08:30:36Z</time>
      </trkpt>
      <trkpt lat="44.19021" lon="7.48685">
        <ele>1762.71</ele>
        <time>2023-03-22T08:30:51Z</time>
      </trkpt>
      <trkpt lat="44.1901" lon="7.48679">
        <ele>1767.04</ele>
        <time>2023-03-22T08:31:07Z</time>
      </trkpt>
      <trkpt lat="44.19002" lon="7.48675">
        <ele>1768.96</ele>
        <time>2023-03-22T08:31:22Z</time>
      </trkpt>
      <trkpt lat="44.19006" lon="7.48666">
        <ele>1769.92</ele>
        <time>2023-03-22T08:31:36Z</time>
      </trkpt>
      <trkpt lat="44.19005" lon="7.48657">
        <ele>1773.29</ele>
        <time>2023-03-22T08:31:53Z</time>
      </trkpt>
      <trkpt lat="44.18993" lon="7.48658">
        <ele>1776.17</ele>
        <time>2023-03-22T08:32:05Z</time>
      </trkpt>
      <trkpt lat="44.18986" lon="7.48657">
        <ele>1779.54</ele>
        <time>2023-03-22T08:32:18Z</time>
      </trkpt>
      <trkpt lat="44.1899" lon="7.48646">
        <ele>1778.58</ele>
        <time>2023-03-22T08:32:35Z</time>
      </trkpt>
      <trkpt lat="44.18991" lon="7.48643">
        <ele>1779.54</ele>
        <time>2023-03-22T08:32:39Z</time>
      </trkpt>
      <trkpt lat="44.18988" lon="7.48633">
        <ele>1781.46</ele>
        <time>2023-03-22T08:32:54Z</time>
      </trkpt>
      <trkpt lat="44.18975" lon="7.48639">
        <ele>1783.38</ele>
        <time>2023-03-22T08:33:08Z</time>
      </trkpt>
      <trkpt lat="44.18976" lon="7.48632">
        <ele>1783.86</ele>
        <time>2023-03-22T08:33:23Z</time>
      </trkpt>
      <trkpt lat="44.18977" lon="7.48622">
        <ele>1788.67</ele>
        <time>2023-03-22T08:33:39Z</time>
      </trkpt>
      <trkpt lat="44.18976" lon="7.48618">
        <ele>1789.63</ele>
        <time>2023-03-22T08:33:44Z</time>
      </trkpt>
      <trkpt lat="44.18976" lon="7.48609">
        <ele>1792.03</ele>
        <time>2023-03-22T08:34:02Z</time>
      </trkpt>
      <trkpt lat="44.1897" lon="7.48608">
        <ele>1793</ele>
        <time>2023-03-22T08:34:09Z</time>
      </trkpt>
      <trkpt lat="44.18957" lon="7.4861">
        <ele>1795.88</ele>
        <time>2023-03-22T08:34:23Z</time>
      </trkpt>
      <trkpt lat="44.18962" lon="7.48605">
        <ele>1798.76</ele>
        <time>2023-03-22T08:34:40Z</time>
      </trkpt>
      <trkpt lat="44.18969" lon="7.48601">
        <ele>1796.84</ele>
        <time>2023-03-22T08:35:04Z</time>
      </trkpt>
      <trkpt lat="44.18968" lon="7.48594">
        <ele>1797.8</ele>
        <time>2023-03-22T08:35:17Z</time>
      </trkpt>
      <trkpt lat="44.18971" lon="7.48587">
        <ele>1802.61</ele>
        <time>2023-03-22T08:35:33Z</time>
      </trkpt>
      <trkpt lat="44.18962" lon="7.48586">
        <ele>1804.53</ele>
        <time>2023-03-22T08:35:51Z</time>
      </trkpt>
      <trkpt lat="44.18951" lon="7.48594">
        <ele>1805.49</ele>
        <time>2023-03-22T08:36:06Z</time>
      </trkpt>
      <trkpt lat="44.18946" lon="7.48599">
        <ele>1807.42</ele>
        <time>2023-03-22T08:36:21Z</time>
      </trkpt>
      <trkpt lat="44.1894" lon="7.48602">
        <ele>1808.38</ele>
        <time>2023-03-22T08:36:34Z</time>
      </trkpt>
      <trkpt lat="44.18941" lon="7.48589">
        <ele>1808.38</ele>
        <time>2023-03-22T08:36:47Z</time>
      </trkpt>
      <trkpt lat="44.1894" lon="7.48579">
        <ele>1813.18</ele>
        <time>2023-03-22T08:37:03Z</time>
      </trkpt>
      <trkpt lat="44.18938" lon="7.48572">
        <ele>1817.99</ele>
        <time>2023-03-22T08:37:17Z</time>
      </trkpt>
      <trkpt lat="44.18933" lon="7.48565">
        <ele>1822.32</ele>
        <time>2023-03-22T08:37:31Z</time>
      </trkpt>
      <trkpt lat="44.18925" lon="7.48561">
        <ele>1826.64</ele>
        <time>2023-03-22T08:37:50Z</time>
      </trkpt>
      <trkpt lat="44.18924" lon="7.48549">
        <ele>1825.68</ele>
        <time>2023-03-22T08:38:06Z</time>
      </trkpt>
      <trkpt lat="44.18919" lon="7.48542">
        <ele>1826.16</ele>
        <time>2023-03-22T08:38:23Z</time>
      </trkpt>
      <trkpt lat="44.18912" lon="7.4853">
        <ele>1824.72</ele>
        <time>2023-03-22T08:38:39Z</time>
      </trkpt>
      <trkpt lat="44.18908" lon="7.48521">
        <ele>1825.68</ele>
        <time>2023-03-22T08:38:51Z</time>
      </trkpt>
      <trkpt lat="44.18905" lon="7.48514">
        <ele>1825.68</ele>
        <time>2023-03-22T08:39:03Z</time>
      </trkpt>
      <trkpt lat="44.18903" lon="7.48507">
        <ele>1830.49</ele>
        <time>2023-03-22T08:39:17Z</time>
      </trkpt>
      <trkpt lat="44.18903" lon="7.48494">
        <ele>1833.37</ele>
        <time>2023-03-22T08:39:30Z</time>
      </trkpt>
      <trkpt lat="44.18903" lon="7.4849">
        <ele>1835.29</ele>
        <time>2023-03-22T08:39:45Z</time>
      </trkpt>
      <trkpt lat="44.18898" lon="7.48488">
        <ele>1836.74</ele>
        <time>2023-03-22T08:40:08Z</time>
      </trkpt>
      <trkpt lat="44.18895" lon="7.48484">
        <ele>1840.1</ele>
        <time>2023-03-22T08:40:21Z</time>
      </trkpt>
      <trkpt lat="44.18889" lon="7.48482">
        <ele>1843.47</ele>
        <time>2023-03-22T08:40:38Z</time>
      </trkpt>
      <trkpt lat="44.18888" lon="7.48476">
        <ele>1844.91</ele>
        <time>2023-03-22T08:40:50Z</time>
      </trkpt>
      <trkpt lat="44.18888" lon="7.48469">
        <ele>1845.87</ele>
        <time>2023-03-22T08:41:02Z</time>
      </trkpt>
      <trkpt lat="44.18882" lon="7.48467">
        <ele>1846.83</ele>
        <time>2023-03-22T08:41:16Z</time>
      </trkpt>
      <trkpt lat="44.18881" lon="7.48458">
        <ele>1848.75</ele>
        <time>2023-03-22T08:41:31Z</time>
      </trkpt>
      <trkpt lat="44.1888" lon="7.48452">
        <ele>1849.23</ele>
        <time>2023-03-22T08:41:46Z</time>
      </trkpt>
      <trkpt lat="44.18877" lon="7.48446">
        <ele>1850.19</ele>
        <time>2023-03-22T08:42:01Z</time>
      </trkpt>
      <trkpt lat="44.18871" lon="7.48445">
        <ele>1851.16</ele>
        <time>2023-03-22T08:42:16Z</time>
      </trkpt>
      <trkpt lat="44.18871" lon="7.48439">
        <ele>1853.56</ele>
        <time>2023-03-22T08:42:27Z</time>
      </trkpt>
      <trkpt lat="44.18866" lon="7.48436">
        <ele>1857.4</ele>
        <time>2023-03-22T08:42:43Z</time>
      </trkpt>
      <trkpt lat="44.18866" lon="7.4843">
        <ele>1859.33</ele>
        <time>2023-03-22T08:42:56Z</time>
      </trkpt>
      <trkpt lat="44.18865" lon="7.48424">
        <ele>1860.77</ele>
        <time>2023-03-22T08:43:08Z</time>
      </trkpt>
      <trkpt lat="44.18857" lon="7.48424">
        <ele>1862.69</ele>
        <time>2023-03-22T08:43:25Z</time>
      </trkpt>
      <trkpt lat="44.18855" lon="7.48418">
        <ele>1864.61</ele>
        <time>2023-03-22T08:43:37Z</time>
      </trkpt>
      <trkpt lat="44.18848" lon="7.4842">
        <ele>1867.98</ele>
        <time>2023-03-22T08:43:54Z</time>
      </trkpt>
      <trkpt lat="44.18852" lon="7.48411">
        <ele>1870.38</ele>
        <time>2023-03-22T08:44:07Z</time>
      </trkpt>
      <trkpt lat="44.18852" lon="7.48403">
        <ele>1873.75</ele>
        <time>2023-03-22T08:44:21Z</time>
      </trkpt>
      <trkpt lat="44.18848" lon="7.48399">
        <ele>1875.19</ele>
        <time>2023-03-22T08:44:36Z</time>
      </trkpt>
      <trkpt lat="44.1884" lon="7.48402">
        <ele>1877.11</ele>
        <time>2023-03-22T08:44:51Z</time>
      </trkpt>
      <trkpt lat="44.18834" lon="7.48398">
        <ele>1878.55</ele>
        <time>2023-03-22T08:45:09Z</time>
      </trkpt>
      <trkpt lat="44.18827" lon="7.48396">
        <ele>1881.44</ele>
        <time>2023-03-22T08:45:23Z</time>
      </trkpt>
      <trkpt lat="44.18824" lon="7.48391">
        <ele>1885.28</ele>
        <time>2023-03-22T08:45:36Z</time>
      </trkpt>
      <trkpt lat="44.18818" lon="7.48386">
        <ele>1886.72</ele>
        <time>2023-03-22T08:45:49Z</time>
      </trkpt>
      <trkpt lat="44.18813" lon="7.48382">
        <ele>1889.61</ele>
        <time>2023-03-22T08:46:04Z</time>
      </trkpt>
      <trkpt lat="44.18807" lon="7.48375">
        <ele>1894.42</ele>
        <time>2023-03-22T08:46:18Z</time>
      </trkpt>
      <trkpt lat="44.18801" lon="7.4837">
        <ele>1894.9</ele>
        <time>2023-03-22T08:46:31Z</time>
      </trkpt>
      <trkpt lat="44.18802" lon="7.4837">
        <ele>1893.93</ele>
        <time>2023-03-22T08:46:41Z</time>
      </trkpt>
      <trkpt lat="44.18801" lon="7.48371">
        <ele>1892.01</ele>
        <time>2023-03-22T08:47:07Z</time>
      </trkpt>
      <trkpt lat="44.18799" lon="7.4837">
        <ele>1892.01</ele>
        <time>2023-03-22T08:47:40Z</time>
      </trkpt>
      <trkpt lat="44.18799" lon="7.48372">
        <ele>1890.09</ele>
        <time>2023-03-22T08:48:06Z</time>
      </trkpt>
      <trkpt lat="44.18799" lon="7.48373">
        <ele>1891.53</ele>
        <time>2023-03-22T08:48:29Z</time>
      </trkpt>
      <trkpt lat="44.18799" lon="7.48374">
        <ele>1887.21</ele>
        <time>2023-03-22T08:48:44Z</time>
      </trkpt>
      <trkpt lat="44.18802" lon="7.48372">
        <ele>1889.13</ele>
        <time>2023-03-22T08:49:21Z</time>
      </trkpt>
      <trkpt lat="44.18801" lon="7.48372">
        <ele>1893.93</ele>
        <time>2023-03-22T08:49:38Z</time>
      </trkpt>
      <trkpt lat="44.18794" lon="7.48363">
        <ele>1894.42</ele>
        <time>2023-03-22T08:49:55Z</time>
      </trkpt>
      <trkpt lat="44.18786" lon="7.48354">
        <ele>1894.9</ele>
        <time>2023-03-22T08:50:09Z</time>
      </trkpt>
      <trkpt lat="44.18778" lon="7.48346">
        <ele>1895.86</ele>
        <time>2023-03-22T08:50:24Z</time>
      </trkpt>
      <trkpt lat="44.18771" lon="7.48339">
        <ele>1896.82</ele>
        <time>2023-03-22T08:50:37Z</time>
      </trkpt>
      <trkpt lat="44.18764" lon="7.48332">
        <ele>1899.22</ele>
        <time>2023-03-22T08:50:54Z</time>
      </trkpt>
      <trkpt lat="44.18756" lon="7.48325">
        <ele>1899.22</ele>
        <time>2023-03-22T08:51:08Z</time>
      </trkpt>
      <trkpt lat="44.18746" lon="7.4832">
        <ele>1899.22</ele>
        <time>2023-03-22T08:51:28Z</time>
      </trkpt>
      <trkpt lat="44.1874" lon="7.48311">
        <ele>1904.03</ele>
        <time>2023-03-22T08:51:45Z</time>
      </trkpt>
      <trkpt lat="44.18733" lon="7.48303">
        <ele>1907.87</ele>
        <time>2023-03-22T08:52:00Z</time>
      </trkpt>
      <trkpt lat="44.1873" lon="7.48297">
        <ele>1909.8</ele>
        <time>2023-03-22T08:52:16Z</time>
      </trkpt>
      <trkpt lat="44.18726" lon="7.48292">
        <ele>1911.72</ele>
        <time>2023-03-22T08:52:29Z</time>
      </trkpt>
      <trkpt lat="44.18717" lon="7.48281">
        <ele>1915.56</ele>
        <time>2023-03-22T08:52:51Z</time>
      </trkpt>
      <trkpt lat="44.18709" lon="7.48275">
        <ele>1914.12</ele>
        <time>2023-03-22T08:53:05Z</time>
      </trkpt>
      <trkpt lat="44.18701" lon="7.4827">
        <ele>1915.08</ele>
        <time>2023-03-22T08:53:18Z</time>
      </trkpt>
      <trkpt lat="44.18692" lon="7.48266">
        <ele>1917.01</ele>
        <time>2023-03-22T08:53:34Z</time>
      </trkpt>
      <trkpt lat="44.18685" lon="7.48262">
        <ele>1918.93</ele>
        <time>2023-03-22T08:53:49Z</time>
      </trkpt>
      <trkpt lat="44.1868" lon="7.48258">
        <ele>1920.85</ele>
        <time>2023-03-22T08:54:00Z</time>
      </trkpt>
      <trkpt lat="44.18676" lon="7.48255">
        <ele>1923.25</ele>
        <time>2023-03-22T08:54:15Z</time>
      </trkpt>
      <trkpt lat="44.18673" lon="7.48246">
        <ele>1927.58</ele>
        <time>2023-03-22T08:54:29Z</time>
      </trkpt>
      <trkpt lat="44.18668" lon="7.48247">
        <ele>1928.54</ele>
        <time>2023-03-22T08:54:41Z</time>
      </trkpt>
      <trkpt lat="44.18661" lon="7.48257">
        <ele>1932.87</ele>
        <time>2023-03-22T08:54:57Z</time>
      </trkpt>
      <trkpt lat="44.18658" lon="7.48257">
        <ele>1934.31</ele>
        <time>2023-03-22T08:55:10Z</time>
      </trkpt>
      <trkpt lat="44.18651" lon="7.48256">
        <ele>1937.19</ele>
        <time>2023-03-22T08:55:25Z</time>
      </trkpt>
      <trkpt lat="44.18643" lon="7.48255">
        <ele>1942.48</ele>
        <time>2023-03-22T08:55:41Z</time>
      </trkpt>
      <trkpt lat="44.18634" lon="7.48256">
        <ele>1946.33</ele>
        <time>2023-03-22T08:56:00Z</time>
      </trkpt>
      <trkpt lat="44.18627" lon="7.48261">
        <ele>1945.85</ele>
        <time>2023-03-22T08:56:14Z</time>
      </trkpt>
      <trkpt lat="44.18617" lon="7.48263">
        <ele>1946.81</ele>
        <time>2023-03-22T08:56:30Z</time>
      </trkpt>
      <trkpt lat="44.18611" lon="7.4826">
        <ele>1946.33</ele>
        <time>2023-03-22T08:56:46Z</time>
      </trkpt>
      <trkpt lat="44.18606" lon="7.48251">
        <ele>1946.81</ele>
        <time>2023-03-22T08:57:00Z</time>
      </trkpt>
      <trkpt lat="44.18601" lon="7.48245">
        <ele>1950.65</ele>
        <time>2023-03-22T08:57:12Z</time>
      </trkpt>
      <trkpt lat="44.186" lon="7.48232">
        <ele>1955.94</ele>
        <time>2023-03-22T08:57:31Z</time>
      </trkpt>
      <trkpt lat="44.18593" lon="7.48226">
        <ele>1957.86</ele>
        <time>2023-03-22T08:57:42Z</time>
      </trkpt>
      <trkpt lat="44.18591" lon="7.48223">
        <ele>1960.75</ele>
        <time>2023-03-22T08:57:56Z</time>
      </trkpt>
      <trkpt lat="44.18588" lon="7.48215">
        <ele>1963.15</ele>
        <time>2023-03-22T08:58:07Z</time>
      </trkpt>
      <trkpt lat="44.18584" lon="7.48206">
        <ele>1963.15</ele>
        <time>2023-03-22T08:58:19Z</time>
      </trkpt>
      <trkpt lat="44.18583" lon="7.48198">
        <ele>1967.48</ele>
        <time>2023-03-22T08:58:36Z</time>
      </trkpt>
      <trkpt lat="44.18579" lon="7.48189">
        <ele>1970.36</ele>
        <time>2023-03-22T08:58:50Z</time>
      </trkpt>
      <trkpt lat="44.18572" lon="7.48179">
        <ele>1971.32</ele>
        <time>2023-03-22T08:59:05Z</time>
      </trkpt>
      <trkpt lat="44.18568" lon="7.48173">
        <ele>1975.65</ele>
        <time>2023-03-22T08:59:20Z</time>
      </trkpt>
      <trkpt lat="44.18567" lon="7.48172">
        <ele>1979.01</ele>
        <time>2023-03-22T08:59:41Z</time>
      </trkpt>
      <trkpt lat="44.18565" lon="7.48166">
        <ele>1979.01</ele>
        <time>2023-03-22T08:59:59Z</time>
      </trkpt>
      <trkpt lat="44.1856" lon="7.48156">
        <ele>1979.01</ele>
        <time>2023-03-22T09:00:11Z</time>
      </trkpt>
      <trkpt lat="44.18558" lon="7.48151">
        <ele>1979.01</ele>
        <time>2023-03-22T09:00:22Z</time>
      </trkpt>
      <trkpt lat="44.18555" lon="7.48145">
        <ele>1979.97</ele>
        <time>2023-03-22T09:00:40Z</time>
      </trkpt>
      <trkpt lat="44.18555" lon="7.48139">
        <ele>1984.3</ele>
        <time>2023-03-22T09:01:01Z</time>
      </trkpt>
      <trkpt lat="44.18551" lon="7.48136">
        <ele>1986.22</ele>
        <time>2023-03-22T09:01:17Z</time>
      </trkpt>
      <trkpt lat="44.18541" lon="7.4813">
        <ele>1987.18</ele>
        <time>2023-03-22T09:01:31Z</time>
      </trkpt>
      <trkpt lat="44.18536" lon="7.48124">
        <ele>1986.22</ele>
        <time>2023-03-22T09:01:41Z</time>
      </trkpt>
      <trkpt lat="44.18533" lon="7.48115">
        <ele>1986.22</ele>
        <time>2023-03-22T09:01:55Z</time>
      </trkpt>
      <trkpt lat="44.18529" lon="7.48104">
        <ele>1991.03</ele>
        <time>2023-03-22T09:02:18Z</time>
      </trkpt>
      <trkpt lat="44.18527" lon="7.48098">
        <ele>1992.47</ele>
        <time>2023-03-22T09:02:28Z</time>
      </trkpt>
      <trkpt lat="44.18524" lon="7.48089">
        <ele>1994.87</ele>
        <time>2023-03-22T09:02:43Z</time>
      </trkpt>
      <trkpt lat="44.18521" lon="7.48079">
        <ele>1997.28</ele>
        <time>2023-03-22T09:02:58Z</time>
      </trkpt>
      <trkpt lat="44.18515" lon="7.48075">
        <ele>1998.72</ele>
        <time>2023-03-22T09:03:11Z</time>
      </trkpt>
      <trkpt lat="44.18506" lon="7.48083">
        <ele>1999.68</ele>
        <time>2023-03-22T09:03:26Z</time>
      </trkpt>
      <trkpt lat="44.18503" lon="7.48084">
        <ele>2000.16</ele>
        <time>2023-03-22T09:03:33Z</time>
      </trkpt>
      <trkpt lat="44.18495" lon="7.48081">
        <ele>2002.08</ele>
        <time>2023-03-22T09:03:48Z</time>
      </trkpt>
      <trkpt lat="44.18493" lon="7.48072">
        <ele>2003.52</ele>
        <time>2023-03-22T09:04:04Z</time>
      </trkpt>
      <trkpt lat="44.18491" lon="7.48066">
        <ele>2005.93</ele>
        <time>2023-03-22T09:04:16Z</time>
      </trkpt>
      <trkpt lat="44.1849" lon="7.4806">
        <ele>2009.29</ele>
        <time>2023-03-22T09:04:28Z</time>
      </trkpt>
      <trkpt lat="44.18486" lon="7.48053">
        <ele>2011.7</ele>
        <time>2023-03-22T09:04:41Z</time>
      </trkpt>
      <trkpt lat="44.1848" lon="7.48057">
        <ele>2008.33</ele>
        <time>2023-03-22T09:04:53Z</time>
      </trkpt>
      <trkpt lat="44.18473" lon="7.48063">
        <ele>2010.25</ele>
        <time>2023-03-22T09:05:09Z</time>
      </trkpt>
      <trkpt lat="44.18462" lon="7.48067">
        <ele>2011.22</ele>
        <time>2023-03-22T09:05:30Z</time>
      </trkpt>
      <trkpt lat="44.18455" lon="7.48067">
        <ele>2015.06</ele>
        <time>2023-03-22T09:05:43Z</time>
      </trkpt>
      <trkpt lat="44.18457" lon="7.48065">
        <ele>2017.46</ele>
        <time>2023-03-22T09:06:00Z</time>
      </trkpt>
      <trkpt lat="44.18461" lon="7.48065">
        <ele>2021.31</ele>
        <time>2023-03-22T09:06:24Z</time>
      </trkpt>
      <trkpt lat="44.1846" lon="7.48066">
        <ele>2021.79</ele>
        <time>2023-03-22T09:06:48Z</time>
      </trkpt>
      <trkpt lat="44.18458" lon="7.48061">
        <ele>2022.27</ele>
        <time>2023-03-22T09:07:04Z</time>
      </trkpt>
      <trkpt lat="44.18454" lon="7.48054">
        <ele>2025.64</ele>
        <time>2023-03-22T09:07:22Z</time>
      </trkpt>
      <trkpt lat="44.18442" lon="7.48055">
        <ele>2029</ele>
        <time>2023-03-22T09:07:39Z</time>
      </trkpt>
      <trkpt lat="44.18441" lon="7.48048">
        <ele>2029</ele>
        <time>2023-03-22T09:07:53Z</time>
      </trkpt>
      <trkpt lat="44.1844" lon="7.48041">
        <ele>2030.92</ele>
        <time>2023-03-22T09:08:06Z</time>
      </trkpt>
      <trkpt lat="44.18432" lon="7.48038">
        <ele>2030.92</ele>
        <time>2023-03-22T09:08:19Z</time>
      </trkpt>
      <trkpt lat="44.18424" lon="7.48038">
        <ele>2033.81</ele>
        <time>2023-03-22T09:08:38Z</time>
      </trkpt>
      <trkpt lat="44.18423" lon="7.48031">
        <ele>2037.65</ele>
        <time>2023-03-22T09:08:51Z</time>
      </trkpt>
      <trkpt lat="44.1842" lon="7.48023">
        <ele>2041.02</ele>
        <time>2023-03-22T09:09:04Z</time>
      </trkpt>
      <trkpt lat="44.18416" lon="7.48016">
        <ele>2041.98</ele>
        <time>2023-03-22T09:09:17Z</time>
      </trkpt>
      <trkpt lat="44.1841" lon="7.48019">
        <ele>2043.9</ele>
        <time>2023-03-22T09:09:32Z</time>
      </trkpt>
      <trkpt lat="44.18404" lon="7.48015">
        <ele>2047.26</ele>
        <time>2023-03-22T09:09:43Z</time>
      </trkpt>
      <trkpt lat="44.18402" lon="7.48009">
        <ele>2050.15</ele>
        <time>2023-03-22T09:09:56Z</time>
      </trkpt>
      <trkpt lat="44.18395" lon="7.48016">
        <ele>2048.71</ele>
        <time>2023-03-22T09:10:09Z</time>
      </trkpt>
      <trkpt lat="44.18391" lon="7.48015">
        <ele>2048.71</ele>
        <time>2023-03-22T09:10:23Z</time>
      </trkpt>
      <trkpt lat="44.18387" lon="7.48005">
        <ele>2051.59</ele>
        <time>2023-03-22T09:10:37Z</time>
      </trkpt>
      <trkpt lat="44.18379" lon="7.48011">
        <ele>2050.63</ele>
        <time>2023-03-22T09:10:52Z</time>
      </trkpt>
      <trkpt lat="44.18374" lon="7.48013">
        <ele>2052.55</ele>
        <time>2023-03-22T09:11:08Z</time>
      </trkpt>
      <trkpt lat="44.18372" lon="7.48004">
        <ele>2054.47</ele>
        <time>2023-03-22T09:11:22Z</time>
      </trkpt>
      <trkpt lat="44.18369" lon="7.48002">
        <ele>2055.92</ele>
        <time>2023-03-22T09:11:37Z</time>
      </trkpt>
      <trkpt lat="44.18367" lon="7.48009">
        <ele>2056.4</ele>
        <time>2023-03-22T09:11:52Z</time>
      </trkpt>
      <trkpt lat="44.18368" lon="7.48009">
        <ele>2055.44</ele>
        <time>2023-03-22T09:12:15Z</time>
      </trkpt>
      <trkpt lat="44.18367" lon="7.4801">
        <ele>2059.28</ele>
        <time>2023-03-22T09:12:49Z</time>
      </trkpt>
      <trkpt lat="44.18367" lon="7.48008">
        <ele>2058.32</ele>
        <time>2023-03-22T09:13:21Z</time>
      </trkpt>
      <trkpt lat="44.18366" lon="7.48006">
        <ele>2059.76</ele>
        <time>2023-03-22T09:13:50Z</time>
      </trkpt>
      <trkpt lat="44.18365" lon="7.48008">
        <ele>2061.2</ele>
        <time>2023-03-22T09:14:08Z</time>
      </trkpt>
      <trkpt lat="44.18361" lon="7.48017">
        <ele>2063.61</ele>
        <time>2023-03-22T09:14:24Z</time>
      </trkpt>
      <trkpt lat="44.18358" lon="7.48029">
        <ele>2066.97</ele>
        <time>2023-03-22T09:14:39Z</time>
      </trkpt>
      <trkpt lat="44.18355" lon="7.48039">
        <ele>2071.3</ele>
        <time>2023-03-22T09:14:55Z</time>
      </trkpt>
      <trkpt lat="44.1835" lon="7.48042">
        <ele>2073.22</ele>
        <time>2023-03-22T09:15:10Z</time>
      </trkpt>
      <trkpt lat="44.18346" lon="7.48043">
        <ele>2075.62</ele>
        <time>2023-03-22T09:15:23Z</time>
      </trkpt>
      <trkpt lat="44.18344" lon="7.4804">
        <ele>2078.03</ele>
        <time>2023-03-22T09:15:44Z</time>
      </trkpt>
      <trkpt lat="44.18344" lon="7.48038">
        <ele>2080.91</ele>
        <time>2023-03-22T09:16:09Z</time>
      </trkpt>
      <trkpt lat="44.1834" lon="7.48028">
        <ele>2085.72</ele>
        <time>2023-03-22T09:16:26Z</time>
      </trkpt>
      <trkpt lat="44.18336" lon="7.48021">
        <ele>2086.68</ele>
        <time>2023-03-22T09:16:39Z</time>
      </trkpt>
      <trkpt lat="44.1833" lon="7.48033">
        <ele>2083.79</ele>
        <time>2023-03-22T09:16:53Z</time>
      </trkpt>
      <trkpt lat="44.18323" lon="7.48036">
        <ele>2086.2</ele>
        <time>2023-03-22T09:17:09Z</time>
      </trkpt>
      <trkpt lat="44.1832" lon="7.48038">
        <ele>2088.6</ele>
        <time>2023-03-22T09:17:25Z</time>
      </trkpt>
      <trkpt lat="44.18313" lon="7.48043">
        <ele>2091.49</ele>
        <time>2023-03-22T09:17:43Z</time>
      </trkpt>
      <trkpt lat="44.18311" lon="7.4804">
        <ele>2093.41</ele>
        <time>2023-03-22T09:17:58Z</time>
      </trkpt>
      <trkpt lat="44.1831" lon="7.48033">
        <ele>2095.33</ele>
        <time>2023-03-22T09:18:10Z</time>
      </trkpt>
      <trkpt lat="44.18304" lon="7.48042">
        <ele>2093.89</ele>
        <time>2023-03-22T09:18:27Z</time>
      </trkpt>
      <trkpt lat="44.18301" lon="7.4804">
        <ele>2094.85</ele>
        <time>2023-03-22T09:18:43Z</time>
      </trkpt>
      <trkpt lat="44.183" lon="7.4803">
        <ele>2097.73</ele>
        <time>2023-03-22T09:18:57Z</time>
      </trkpt>
      <trkpt lat="44.18299" lon="7.48021">
        <ele>2099.66</ele>
        <time>2023-03-22T09:19:10Z</time>
      </trkpt>
      <trkpt lat="44.18297" lon="7.48016">
        <ele>2099.66</ele>
        <time>2023-03-22T09:19:23Z</time>
      </trkpt>
      <trkpt lat="44.18298" lon="7.4801">
        <ele>2102.54</ele>
        <time>2023-03-22T09:19:42Z</time>
      </trkpt>
      <trkpt lat="44.18297" lon="7.48003">
        <ele>2103.98</ele>
        <time>2023-03-22T09:19:55Z</time>
      </trkpt>
      <trkpt lat="44.18297" lon="7.47994">
        <ele>2105.91</ele>
        <time>2023-03-22T09:20:09Z</time>
      </trkpt>
      <trkpt lat="44.18298" lon="7.47991">
        <ele>2108.31</ele>
        <time>2023-03-22T09:20:27Z</time>
      </trkpt>
      <trkpt lat="44.183" lon="7.47989">
        <ele>2110.23</ele>
        <time>2023-03-22T09:20:47Z</time>
      </trkpt>
      <trkpt lat="44.18292" lon="7.47992">
        <ele>2110.71</ele>
        <time>2023-03-22T09:21:03Z</time>
      </trkpt>
      <trkpt lat="44.18284" lon="7.47997">
        <ele>2112.63</ele>
        <time>2023-03-22T09:21:21Z</time>
      </trkpt>
      <trkpt lat="44.18277" lon="7.48004">
        <ele>2115.04</ele>
        <time>2023-03-22T09:21:38Z</time>
      </trkpt>
      <trkpt lat="44.18276" lon="7.48002">
        <ele>2116.96</ele>
        <time>2023-03-22T09:21:57Z</time>
      </trkpt>
      <trkpt lat="44.1827" lon="7.48001">
        <ele>2116.48</ele>
        <time>2023-03-22T09:22:30Z</time>
      </trkpt>
      <trkpt lat="44.18273" lon="7.48003">
        <ele>2116.48</ele>
        <time>2023-03-22T09:22:58Z</time>
      </trkpt>
      <trkpt lat="44.1827" lon="7.48006">
        <ele>2117.44</ele>
        <time>2023-03-22T09:23:14Z</time>
      </trkpt>
      <trkpt lat="44.18271" lon="7.48004">
        <ele>2119.36</ele>
        <time>2023-03-22T09:23:31Z</time>
      </trkpt>
      <trkpt lat="44.18272" lon="7.47999">
        <ele>2119.36</ele>
        <time>2023-03-22T09:23:44Z</time>
      </trkpt>
      <trkpt lat="44.18273" lon="7.47991">
        <ele>2121.77</ele>
        <time>2023-03-22T09:23:57Z</time>
      </trkpt>
      <trkpt lat="44.18274" lon="7.47984">
        <ele>2123.21</ele>
        <time>2023-03-22T09:24:09Z</time>
      </trkpt>
      <trkpt lat="44.18273" lon="7.47977">
        <ele>2125.13</ele>
        <time>2023-03-22T09:24:23Z</time>
      </trkpt>
      <trkpt lat="44.18269" lon="7.47977">
        <ele>2126.09</ele>
        <time>2023-03-22T09:24:39Z</time>
      </trkpt>
      <trkpt lat="44.18262" lon="7.47981">
        <ele>2128.02</ele>
        <time>2023-03-22T09:24:54Z</time>
      </trkpt>
      <trkpt lat="44.1826" lon="7.47981">
        <ele>2128.5</ele>
        <time>2023-03-22T09:25:11Z</time>
      </trkpt>
      <trkpt lat="44.18261" lon="7.47976">
        <ele>2129.94</ele>
        <time>2023-03-22T09:25:23Z</time>
      </trkpt>
      <trkpt lat="44.1826" lon="7.47973">
        <ele>2130.9</ele>
        <time>2023-03-22T09:25:37Z</time>
      </trkpt>
      <trkpt lat="44.18254" lon="7.4798">
        <ele>2133.3</ele>
        <time>2023-03-22T09:25:53Z</time>
      </trkpt>
      <trkpt lat="44.18254" lon="7.47982">
        <ele>2133.78</ele>
        <time>2023-03-22T09:26:11Z</time>
      </trkpt>
      <trkpt lat="44.18254" lon="7.47977">
        <ele>2134.26</ele>
        <time>2023-03-22T09:26:25Z</time>
      </trkpt>
      <trkpt lat="44.18256" lon="7.4797">
        <ele>2134.26</ele>
        <time>2023-03-22T09:26:36Z</time>
      </trkpt>
      <trkpt lat="44.18258" lon="7.47965">
        <ele>2135.23</ele>
        <time>2023-03-22T09:26:49Z</time>
      </trkpt>
      <trkpt lat="44.1826" lon="7.4796">
        <ele>2136.67</ele>
        <time>2023-03-22T09:27:02Z</time>
      </trkpt>
      <trkpt lat="44.18261" lon="7.47957">
        <ele>2136.67</ele>
        <time>2023-03-22T09:27:16Z</time>
      </trkpt>
      <trkpt lat="44.18261" lon="7.47956">
        <ele>2137.63</ele>
        <time>2023-03-22T09:27:29Z</time>
      </trkpt>
      <trkpt lat="44.18255" lon="7.47955">
        <ele>2138.11</ele>
        <time>2023-03-22T09:27:45Z</time>
      </trkpt>
      <trkpt lat="44.18245" lon="7.4796">
        <ele>2139.55</ele>
        <time>2023-03-22T09:28:01Z</time>
      </trkpt>
      <trkpt lat="44.18241" lon="7.4796">
        <ele>2138.59</ele>
        <time>2023-03-22T09:28:20Z</time>
      </trkpt>
      <trkpt lat="44.18238" lon="7.47965">
        <ele>2141.95</ele>
        <time>2023-03-22T09:28:34Z</time>
      </trkpt>
      <trkpt lat="44.18236" lon="7.47968">
        <ele>2143.4</ele>
        <time>2023-03-22T09:28:48Z</time>
      </trkpt>
      <trkpt lat="44.18229" lon="7.47973">
        <ele>2144.84</ele>
        <time>2023-03-22T09:29:02Z</time>
      </trkpt>
      <trkpt lat="44.18229" lon="7.47973">
        <ele>2148.68</ele>
        <time>2023-03-22T09:29:18Z</time>
      </trkpt>
      <trkpt lat="44.18229" lon="7.47972">
        <ele>2151.57</ele>
        <time>2023-03-22T09:29:37Z</time>
      </trkpt>
      <trkpt lat="44.1823" lon="7.47969">
        <ele>2150.13</ele>
        <time>2023-03-22T09:29:54Z</time>
      </trkpt>
      <trkpt lat="44.18233" lon="7.47965">
        <ele>2150.61</ele>
        <time>2023-03-22T09:30:11Z</time>
      </trkpt>
      <trkpt lat="44.18234" lon="7.47961">
        <ele>2153.49</ele>
        <time>2023-03-22T09:30:27Z</time>
      </trkpt>
      <trkpt lat="44.18233" lon="7.47956">
        <ele>2154.45</ele>
        <time>2023-03-22T09:30:43Z</time>
      </trkpt>
      <trkpt lat="44.18228" lon="7.47953">
        <ele>2150.61</ele>
        <time>2023-03-22T09:30:56Z</time>
      </trkpt>
      <trkpt lat="44.18219" lon="7.47956">
        <ele>2153.97</ele>
        <time>2023-03-22T09:31:13Z</time>
      </trkpt>
      <trkpt lat="44.18218" lon="7.47959">
        <ele>2158.3</ele>
        <time>2023-03-22T09:31:36Z</time>
      </trkpt>
      <trkpt lat="44.18219" lon="7.47957">
        <ele>2159.74</ele>
        <time>2023-03-22T09:31:53Z</time>
      </trkpt>
      <trkpt lat="44.18221" lon="7.47955">
        <ele>2158.78</ele>
        <time>2023-03-22T09:32:03Z</time>
      </trkpt>
      <trkpt lat="44.18221" lon="7.4795">
        <ele>2159.26</ele>
        <time>2023-03-22T09:32:13Z</time>
      </trkpt>
      <trkpt lat="44.18223" lon="7.47944">
        <ele>2158.78</ele>
        <time>2023-03-22T09:32:25Z</time>
      </trkpt>
      <trkpt lat="44.18223" lon="7.47937">
        <ele>2159.74</ele>
        <time>2023-03-22T09:32:37Z</time>
      </trkpt>
      <trkpt lat="44.18225" lon="7.47932">
        <ele>2162.14</ele>
        <time>2023-03-22T09:32:47Z</time>
      </trkpt>
      <trkpt lat="44.18225" lon="7.47929">
        <ele>2163.1</ele>
        <time>2023-03-22T09:32:58Z</time>
      </trkpt>
      <trkpt lat="44.18219" lon="7.47931">
        <ele>2161.66</ele>
        <time>2023-03-22T09:33:13Z</time>
      </trkpt>
      <trkpt lat="44.18213" lon="7.47935">
        <ele>2163.58</ele>
        <time>2023-03-22T09:33:26Z</time>
      </trkpt>
      <trkpt lat="44.18212" lon="7.47938">
        <ele>2166.47</ele>
        <time>2023-03-22T09:33:46Z</time>
      </trkpt>
      <trkpt lat="44.18212" lon="7.47941">
        <ele>2171.27</ele>
        <time>2023-03-22T09:34:10Z</time>
      </trkpt>
      <trkpt lat="44.18216" lon="7.47935">
        <ele>2171.27</ele>
        <time>2023-03-22T09:34:26Z</time>
      </trkpt>
      <trkpt lat="44.18216" lon="7.47927">
        <ele>2170.31</ele>
        <time>2023-03-22T09:34:38Z</time>
      </trkpt>
      <trkpt lat="44.18218" lon="7.47921">
        <ele>2170.31</ele>
        <time>2023-03-22T09:34:52Z</time>
      </trkpt>
      <trkpt lat="44.18221" lon="7.47914">
        <ele>2171.76</ele>
        <time>2023-03-22T09:35:05Z</time>
      </trkpt>
      <trkpt lat="44.18224" lon="7.47908">
        <ele>2173.68</ele>
        <time>2023-03-22T09:35:17Z</time>
      </trkpt>
      <trkpt lat="44.18227" lon="7.47902">
        <ele>2174.64</ele>
        <time>2023-03-22T09:35:29Z</time>
      </trkpt>
      <trkpt lat="44.18228" lon="7.47897">
        <ele>2175.6</ele>
        <time>2023-03-22T09:35:45Z</time>
      </trkpt>
      <trkpt lat="44.18229" lon="7.47895">
        <ele>2177.52</ele>
        <time>2023-03-22T09:36:03Z</time>
      </trkpt>
      <trkpt lat="44.18234" lon="7.47894">
        <ele>2181.37</ele>
        <time>2023-03-22T09:36:24Z</time>
      </trkpt>
      <trkpt lat="44.18235" lon="7.47891">
        <ele>2180.89</ele>
        <time>2023-03-22T09:36:44Z</time>
      </trkpt>
      <trkpt lat="44.18237" lon="7.4789">
        <ele>2183.29</ele>
        <time>2023-03-22T09:37:07Z</time>
      </trkpt>
      <trkpt lat="44.18237" lon="7.47889">
        <ele>2182.33</ele>
        <time>2023-03-22T09:37:29Z</time>
      </trkpt>
      <trkpt lat="44.18239" lon="7.47888">
        <ele>2181.37</ele>
        <time>2023-03-22T09:37:48Z</time>
      </trkpt>
      <trkpt lat="44.18238" lon="7.47885">
        <ele>2182.33</ele>
        <time>2023-03-22T09:38:06Z</time>
      </trkpt>
      <trkpt lat="44.18237" lon="7.47887">
        <ele>2182.33</ele>
        <time>2023-03-22T09:38:24Z</time>
      </trkpt>
      <trkpt lat="44.18233" lon="7.47888">
        <ele>2184.73</ele>
        <time>2023-03-22T09:38:41Z</time>
      </trkpt>
      <trkpt lat="44.18228" lon="7.47887">
        <ele>2185.21</ele>
        <time>2023-03-22T09:38:53Z</time>
      </trkpt>
      <trkpt lat="44.18225" lon="7.47888">
        <ele>2187.14</ele>
        <time>2023-03-22T09:39:08Z</time>
      </trkpt>
      <trkpt lat="44.18221" lon="7.47891">
        <ele>2189.06</ele>
        <time>2023-03-22T09:39:23Z</time>
      </trkpt>
      <trkpt lat="44.18219" lon="7.47889">
        <ele>2187.62</ele>
        <time>2023-03-22T09:39:40Z</time>
      </trkpt>
      <trkpt lat="44.18219" lon="7.47891">
        <ele>2188.1</ele>
        <time>2023-03-22T09:39:58Z</time>
      </trkpt>
      <trkpt lat="44.18214" lon="7.47893">
        <ele>2188.1</ele>
        <time>2023-03-22T09:40:16Z</time>
      </trkpt>
      <trkpt lat="44.18212" lon="7.47896">
        <ele>2188.58</ele>
        <time>2023-03-22T09:40:30Z</time>
      </trkpt>
      <trkpt lat="44.1821" lon="7.47894">
        <ele>2186.18</ele>
        <time>2023-03-22T09:40:54Z</time>
      </trkpt>
      <trkpt lat="44.18209" lon="7.47895">
        <ele>2188.1</ele>
        <time>2023-03-22T09:41:12Z</time>
      </trkpt>
      <trkpt lat="44.18207" lon="7.47893">
        <ele>2190.02</ele>
        <time>2023-03-22T09:41:32Z</time>
      </trkpt>
      <trkpt lat="44.18209" lon="7.47894">
        <ele>2187.62</ele>
        <time>2023-03-22T09:41:41Z</time>
      </trkpt>
      <trkpt lat="44.18207" lon="7.47893">
        <ele>2184.73</ele>
        <time>2023-03-22T09:42:06Z</time>
      </trkpt>
      <trkpt lat="44.18209" lon="7.47897">
        <ele>2186.18</ele>
        <time>2023-03-22T09:42:33Z</time>
      </trkpt>
      <trkpt lat="44.18211" lon="7.47896">
        <ele>2186.66</ele>
        <time>2023-03-22T09:43:06Z</time>
      </trkpt>
      <trkpt lat="44.18211" lon="7.47895">
        <ele>2188.1</ele>
        <time>2023-03-22T09:43:24Z</time>
      </trkpt>
      <trkpt lat="44.18207" lon="7.47893">
        <ele>2184.25</ele>
        <time>2023-03-22T09:43:44Z</time>
      </trkpt>
      <trkpt lat="44.18208" lon="7.47895">
        <ele>2184.73</ele>
        <time>2023-03-22T09:44:12Z</time>
      </trkpt>
      <trkpt lat="44.18208" lon="7.47893">
        <ele>2185.21</ele>
        <time>2023-03-22T09:44:37Z</time>
      </trkpt>
      <trkpt lat="44.18207" lon="7.47893">
        <ele>2187.62</ele>
        <time>2023-03-22T09:44:58Z</time>
      </trkpt>
      <trkpt lat="44.18205" lon="7.47894">
        <ele>2188.1</ele>
        <time>2023-03-22T09:45:22Z</time>
      </trkpt>
      <trkpt lat="44.18206" lon="7.47893">
        <ele>2187.62</ele>
        <time>2023-03-22T09:45:52Z</time>
      </trkpt>
      <trkpt lat="44.1821" lon="7.47895">
        <ele>2189.06</ele>
        <time>2023-03-22T09:46:19Z</time>
      </trkpt>
      <trkpt lat="44.18209" lon="7.47897">
        <ele>2191.94</ele>
        <time>2023-03-22T09:46:45Z</time>
      </trkpt>
      <trkpt lat="44.18207" lon="7.47899">
        <ele>2192.9</ele>
        <time>2023-03-22T09:47:15Z</time>
      </trkpt>
      <trkpt lat="44.18208" lon="7.47899">
        <ele>2191.94</ele>
        <time>2023-03-22T09:47:49Z</time>
      </trkpt>
      <trkpt lat="44.1821" lon="7.47904">
        <ele>2193.39</ele>
        <time>2023-03-22T09:48:11Z</time>
      </trkpt>
      <trkpt lat="44.18212" lon="7.47907">
        <ele>2196.75</ele>
        <time>2023-03-22T09:48:39Z</time>
      </trkpt>
      <trkpt lat="44.18214" lon="7.47909">
        <ele>2196.75</ele>
        <time>2023-03-22T09:49:07Z</time>
      </trkpt>
      <trkpt lat="44.18213" lon="7.47908">
        <ele>2194.83</ele>
        <time>2023-03-22T09:49:24Z</time>
      </trkpt>
      <trkpt lat="44.18212" lon="7.479">
        <ele>2191.46</ele>
        <time>2023-03-22T09:49:43Z</time>
      </trkpt>
      <trkpt lat="44.18214" lon="7.47901">
        <ele>2191.94</ele>
        <time>2023-03-22T09:50:04Z</time>
      </trkpt>
      <trkpt lat="44.18214" lon="7.47901">
        <ele>2192.9</ele>
        <time>2023-03-22T09:50:28Z</time>
      </trkpt>
      <trkpt lat="44.18214" lon="7.47902">
        <ele>2192.42</ele>
        <time>2023-03-22T09:50:46Z</time>
      </trkpt>
      <trkpt lat="44.18211" lon="7.47899">
        <ele>2190.98</ele>
        <time>2023-03-22T09:51:09Z</time>
      </trkpt>
      <trkpt lat="44.18211" lon="7.47903">
        <ele>2191.94</ele>
        <time>2023-03-22T09:51:20Z</time>
      </trkpt>
      <trkpt lat="44.18209" lon="7.47918">
        <ele>2189.06</ele>
        <time>2023-03-22T09:51:33Z</time>
      </trkpt>
      <trkpt lat="44.18209" lon="7.47919">
        <ele>2187.62</ele>
        <time>2023-03-22T09:51:38Z</time>
      </trkpt>
      <trkpt lat="44.18207" lon="7.4793">
        <ele>2183.77</ele>
        <time>2023-03-22T09:51:48Z</time>
      </trkpt>
      <trkpt lat="44.18207" lon="7.47939">
        <ele>2179.93</ele>
        <time>2023-03-22T09:52:02Z</time>
      </trkpt>
      <trkpt lat="44.18206" lon="7.4794">
        <ele>2176.08</ele>
        <time>2023-03-22T09:52:15Z</time>
      </trkpt>
      <trkpt lat="44.18213" lon="7.47936">
        <ele>2170.79</ele>
        <time>2023-03-22T09:52:22Z</time>
      </trkpt>
      <trkpt lat="44.18215" lon="7.47933">
        <ele>2168.39</ele>
        <time>2023-03-22T09:52:33Z</time>
      </trkpt>
      <trkpt lat="44.18215" lon="7.47933">
        <ele>2168.39</ele>
        <time>2023-03-22T09:52:34Z</time>
      </trkpt>
      <trkpt lat="44.18214" lon="7.47952">
        <ele>2164.55</ele>
        <time>2023-03-22T09:52:40Z</time>
      </trkpt>
      <trkpt lat="44.18213" lon="7.47955">
        <ele>2164.06</ele>
        <time>2023-03-22T09:52:41Z</time>
      </trkpt>
      <trkpt lat="44.18213" lon="7.47958">
        <ele>2162.62</ele>
        <time>2023-03-22T09:52:55Z</time>
      </trkpt>
      <trkpt lat="44.18214" lon="7.47959">
        <ele>2162.62</ele>
        <time>2023-03-22T09:52:57Z</time>
      </trkpt>
      <trkpt lat="44.18215" lon="7.47969">
        <ele>2161.66</ele>
        <time>2023-03-22T09:53:01Z</time>
      </trkpt>
      <trkpt lat="44.18215" lon="7.47973">
        <ele>2159.26</ele>
        <time>2023-03-22T09:53:10Z</time>
      </trkpt>
      <trkpt lat="44.18218" lon="7.47978">
        <ele>2157.82</ele>
        <time>2023-03-22T09:53:17Z</time>
      </trkpt>
      <trkpt lat="44.18229" lon="7.4796">
        <ele>2150.61</ele>
        <time>2023-03-22T09:53:25Z</time>
      </trkpt>
      <trkpt lat="44.18228" lon="7.4796">
        <ele>2149.16</ele>
        <time>2023-03-22T09:53:30Z</time>
      </trkpt>
      <trkpt lat="44.1823" lon="7.47957">
        <ele>2149.16</ele>
        <time>2023-03-22T09:53:36Z</time>
      </trkpt>
      <trkpt lat="44.18232" lon="7.47958">
        <ele>2148.2</ele>
        <time>2023-03-22T09:53:46Z</time>
      </trkpt>
      <trkpt lat="44.18232" lon="7.47958">
        <ele>2147.72</ele>
        <time>2023-03-22T09:53:47Z</time>
      </trkpt>
      <trkpt lat="44.18234" lon="7.47968">
        <ele>2146.76</ele>
        <time>2023-03-22T09:53:53Z</time>
      </trkpt>
      <trkpt lat="44.18242" lon="7.47964">
        <ele>2140.99</ele>
        <time>2023-03-22T09:54:01Z</time>
      </trkpt>
      <trkpt lat="44.18242" lon="7.47962">
        <ele>2140.99</ele>
        <time>2023-03-22T09:54:15Z</time>
      </trkpt>
      <trkpt lat="44.18242" lon="7.47961">
        <ele>2143.4</ele>
        <time>2023-03-22T09:54:29Z</time>
      </trkpt>
      <trkpt lat="44.18244" lon="7.47962">
        <ele>2142.92</ele>
        <time>2023-03-22T09:54:35Z</time>
      </trkpt>
      <trkpt lat="44.18252" lon="7.47966">
        <ele>2136.67</ele>
        <time>2023-03-22T09:54:43Z</time>
      </trkpt>
      <trkpt lat="44.18252" lon="7.4797">
        <ele>2130.42</ele>
        <time>2023-03-22T09:54:48Z</time>
      </trkpt>
      <trkpt lat="44.18254" lon="7.47973">
        <ele>2125.13</ele>
        <time>2023-03-22T09:54:54Z</time>
      </trkpt>
      <trkpt lat="44.18255" lon="7.47972">
        <ele>2128.02</ele>
        <time>2023-03-22T09:55:11Z</time>
      </trkpt>
      <trkpt lat="44.18255" lon="7.47973">
        <ele>2128.98</ele>
        <time>2023-03-22T09:55:26Z</time>
      </trkpt>
      <trkpt lat="44.18257" lon="7.47974">
        <ele>2128.98</ele>
        <time>2023-03-22T09:55:33Z</time>
      </trkpt>
      <trkpt lat="44.18259" lon="7.47974">
        <ele>2128.98</ele>
        <time>2023-03-22T09:55:36Z</time>
      </trkpt>
      <trkpt lat="44.18261" lon="7.47981">
        <ele>2127.53</ele>
        <time>2023-03-22T09:55:39Z</time>
      </trkpt>
      <trkpt lat="44.18269" lon="7.47977">
        <ele>2123.21</ele>
        <time>2023-03-22T09:55:45Z</time>
      </trkpt>
      <trkpt lat="44.18276" lon="7.47985">
        <ele>2115.52</ele>
        <time>2023-03-22T09:55:51Z</time>
      </trkpt>
      <trkpt lat="44.18281" lon="7.4799">
        <ele>2110.71</ele>
        <time>2023-03-22T09:55:55Z</time>
      </trkpt>
      <trkpt lat="44.18279" lon="7.47997">
        <ele>2108.79</ele>
        <time>2023-03-22T09:55:57Z</time>
      </trkpt>
      <trkpt lat="44.18288" lon="7.47992">
        <ele>2103.5</ele>
        <time>2023-03-22T09:56:03Z</time>
      </trkpt>
      <trkpt lat="44.1829" lon="7.47997">
        <ele>2098.7</ele>
        <time>2023-03-22T09:56:08Z</time>
      </trkpt>
      <trkpt lat="44.1829" lon="7.47996">
        <ele>2098.7</ele>
        <time>2023-03-22T09:56:17Z</time>
      </trkpt>
      <trkpt lat="44.183" lon="7.47999">
        <ele>2096.29</ele>
        <time>2023-03-22T09:56:23Z</time>
      </trkpt>
      <trkpt lat="44.18302" lon="7.47997">
        <ele>2097.25</ele>
        <time>2023-03-22T09:56:40Z</time>
      </trkpt>
      <trkpt lat="44.18304" lon="7.48014">
        <ele>2093.89</ele>
        <time>2023-03-22T09:56:45Z</time>
      </trkpt>
      <trkpt lat="44.18312" lon="7.48007">
        <ele>2088.12</ele>
        <time>2023-03-22T09:56:49Z</time>
      </trkpt>
      <trkpt lat="44.18319" lon="7.47995">
        <ele>2084.28</ele>
        <time>2023-03-22T09:56:55Z</time>
      </trkpt>
      <trkpt lat="44.18322" lon="7.48009">
        <ele>2080.91</ele>
        <time>2023-03-22T09:56:59Z</time>
      </trkpt>
      <trkpt lat="44.18324" lon="7.48029">
        <ele>2078.03</ele>
        <time>2023-03-22T09:57:10Z</time>
      </trkpt>
      <trkpt lat="44.18324" lon="7.48029">
        <ele>2078.03</ele>
        <time>2023-03-22T09:57:11Z</time>
      </trkpt>
      <trkpt lat="44.18335" lon="7.48012">
        <ele>2074.18</ele>
        <time>2023-03-22T09:57:16Z</time>
      </trkpt>
      <trkpt lat="44.1834" lon="7.47997">
        <ele>2071.78</ele>
        <time>2023-03-22T09:57:24Z</time>
      </trkpt>
      <trkpt lat="44.1834" lon="7.47997">
        <ele>2072.26</ele>
        <time>2023-03-22T09:57:26Z</time>
      </trkpt>
      <trkpt lat="44.18348" lon="7.47982">
        <ele>2069.86</ele>
        <time>2023-03-22T09:57:33Z</time>
      </trkpt>
      <trkpt lat="44.18355" lon="7.47974">
        <ele>2068.41</ele>
        <time>2023-03-22T09:57:37Z</time>
      </trkpt>
      <trkpt lat="44.18372" lon="7.47978">
        <ele>2066.01</ele>
        <time>2023-03-22T09:57:46Z</time>
      </trkpt>
      <trkpt lat="44.18379" lon="7.47976">
        <ele>2065.05</ele>
        <time>2023-03-22T09:57:55Z</time>
      </trkpt>
      <trkpt lat="44.18392" lon="7.47973">
        <ele>2061.68</ele>
        <time>2023-03-22T09:58:01Z</time>
      </trkpt>
      <trkpt lat="44.18392" lon="7.47974">
        <ele>2060.72</ele>
        <time>2023-03-22T09:58:07Z</time>
      </trkpt>
      <trkpt lat="44.18398" lon="7.4797">
        <ele>2058.8</ele>
        <time>2023-03-22T09:58:17Z</time>
      </trkpt>
      <trkpt lat="44.18398" lon="7.47971">
        <ele>2060.24</ele>
        <time>2023-03-22T09:58:28Z</time>
      </trkpt>
      <trkpt lat="44.18402" lon="7.47973">
        <ele>2057.36</ele>
        <time>2023-03-22T09:58:47Z</time>
      </trkpt>
      <trkpt lat="44.18403" lon="7.47972">
        <ele>2057.84</ele>
        <time>2023-03-22T09:59:11Z</time>
      </trkpt>
      <trkpt lat="44.18398" lon="7.47971">
        <ele>2059.28</ele>
        <time>2023-03-22T09:59:31Z</time>
      </trkpt>
      <trkpt lat="44.184" lon="7.47971">
        <ele>2061.68</ele>
        <time>2023-03-22T09:59:55Z</time>
      </trkpt>
      <trkpt lat="44.184" lon="7.47971">
        <ele>2066.01</ele>
        <time>2023-03-22T10:00:10Z</time>
      </trkpt>
      <trkpt lat="44.18399" lon="7.47973">
        <ele>2067.45</ele>
        <time>2023-03-22T10:00:27Z</time>
      </trkpt>
      <trkpt lat="44.18399" lon="7.47973">
        <ele>2066.49</ele>
        <time>2023-03-22T10:00:35Z</time>
      </trkpt>
      <trkpt lat="44.18408" lon="7.47973">
        <ele>2060.72</ele>
        <time>2023-03-22T10:00:40Z</time>
      </trkpt>
      <trkpt lat="44.18414" lon="7.47986">
        <ele>2054.47</ele>
        <time>2023-03-22T10:00:45Z</time>
      </trkpt>
      <trkpt lat="44.18424" lon="7.47982">
        <ele>2046.3</ele>
        <time>2023-03-22T10:00:51Z</time>
      </trkpt>
      <trkpt lat="44.18434" lon="7.47994">
        <ele>2040.54</ele>
        <time>2023-03-22T10:00:56Z</time>
      </trkpt>
      <trkpt lat="44.18449" lon="7.47997">
        <ele>2032.84</ele>
        <time>2023-03-22T10:01:03Z</time>
      </trkpt>
      <trkpt lat="44.1845" lon="7.47992">
        <ele>2030.92</ele>
        <time>2023-03-22T10:01:16Z</time>
      </trkpt>
      <trkpt lat="44.18463" lon="7.48002">
        <ele>2026.6</ele>
        <time>2023-03-22T10:01:22Z</time>
      </trkpt>
      <trkpt lat="44.1847" lon="7.48016">
        <ele>2019.39</ele>
        <time>2023-03-22T10:01:27Z</time>
      </trkpt>
      <trkpt lat="44.18482" lon="7.48021">
        <ele>2012.18</ele>
        <time>2023-03-22T10:01:32Z</time>
      </trkpt>
      <trkpt lat="44.18494" lon="7.4803">
        <ele>2002.56</ele>
        <time>2023-03-22T10:01:37Z</time>
      </trkpt>
      <trkpt lat="44.185" lon="7.48035">
        <ele>1993.43</ele>
        <time>2023-03-22T10:01:42Z</time>
      </trkpt>
      <trkpt lat="44.18508" lon="7.48047">
        <ele>1987.66</ele>
        <time>2023-03-22T10:01:47Z</time>
      </trkpt>
      <trkpt lat="44.18515" lon="7.48057">
        <ele>1984.78</ele>
        <time>2023-03-22T10:01:50Z</time>
      </trkpt>
      <trkpt lat="44.1853" lon="7.4808">
        <ele>1979.01</ele>
        <time>2023-03-22T10:01:57Z</time>
      </trkpt>
      <trkpt lat="44.18536" lon="7.48081">
        <ele>1978.53</ele>
        <time>2023-03-22T10:01:58Z</time>
      </trkpt>
      <trkpt lat="44.18551" lon="7.48112">
        <ele>1976.61</ele>
        <time>2023-03-22T10:02:04Z</time>
      </trkpt>
      <trkpt lat="44.1857" lon="7.48125">
        <ele>1969.4</ele>
        <time>2023-03-22T10:02:09Z</time>
      </trkpt>
      <trkpt lat="44.18587" lon="7.48134">
        <ele>1963.15</ele>
        <time>2023-03-22T10:02:14Z</time>
      </trkpt>
      <trkpt lat="44.18598" lon="7.48123">
        <ele>1960.27</ele>
        <time>2023-03-22T10:02:19Z</time>
      </trkpt>
      <trkpt lat="44.18601" lon="7.48123">
        <ele>1963.63</ele>
        <time>2023-03-22T10:02:41Z</time>
      </trkpt>
      <trkpt lat="44.18602" lon="7.48123">
        <ele>1963.63</ele>
        <time>2023-03-22T10:02:52Z</time>
      </trkpt>
      <trkpt lat="44.18627" lon="7.48124">
        <ele>1956.42</ele>
        <time>2023-03-22T10:02:59Z</time>
      </trkpt>
      <trkpt lat="44.18651" lon="7.4813">
        <ele>1952.57</ele>
        <time>2023-03-22T10:03:05Z</time>
      </trkpt>
      <trkpt lat="44.18664" lon="7.4816">
        <ele>1950.65</ele>
        <time>2023-03-22T10:03:10Z</time>
      </trkpt>
      <trkpt lat="44.18663" lon="7.4819">
        <ele>1951.13</ele>
        <time>2023-03-22T10:03:18Z</time>
      </trkpt>
      <trkpt lat="44.18664" lon="7.48187">
        <ele>1950.65</ele>
        <time>2023-03-22T10:03:34Z</time>
      </trkpt>
      <trkpt lat="44.18671" lon="7.48205">
        <ele>1946.81</ele>
        <time>2023-03-22T10:03:42Z</time>
      </trkpt>
      <trkpt lat="44.18674" lon="7.48202">
        <ele>1945.36</ele>
        <time>2023-03-22T10:03:43Z</time>
      </trkpt>
      <trkpt lat="44.1868" lon="7.48196">
        <ele>1943.44</ele>
        <time>2023-03-22T10:03:45Z</time>
      </trkpt>
      <trkpt lat="44.18673" lon="7.48222">
        <ele>1935.75</ele>
        <time>2023-03-22T10:03:51Z</time>
      </trkpt>
      <trkpt lat="44.18688" lon="7.48234">
        <ele>1929.98</ele>
        <time>2023-03-22T10:03:55Z</time>
      </trkpt>
      <trkpt lat="44.18701" lon="7.48258">
        <ele>1923.74</ele>
        <time>2023-03-22T10:03:59Z</time>
      </trkpt>
      <trkpt lat="44.18734" lon="7.48268">
        <ele>1918.45</ele>
        <time>2023-03-22T10:04:05Z</time>
      </trkpt>
      <trkpt lat="44.18745" lon="7.48268">
        <ele>1917.49</ele>
        <time>2023-03-22T10:04:08Z</time>
      </trkpt>
      <trkpt lat="44.18753" lon="7.4827">
        <ele>1916.53</ele>
        <time>2023-03-22T10:04:10Z</time>
      </trkpt>
      <trkpt lat="44.18767" lon="7.48296">
        <ele>1911.72</ele>
        <time>2023-03-22T10:04:15Z</time>
      </trkpt>
      <trkpt lat="44.18778" lon="7.48319">
        <ele>1905.47</ele>
        <time>2023-03-22T10:04:19Z</time>
      </trkpt>
      <trkpt lat="44.18797" lon="7.48325">
        <ele>1902.59</ele>
        <time>2023-03-22T10:04:24Z</time>
      </trkpt>
      <trkpt lat="44.18813" lon="7.48355">
        <ele>1896.34</ele>
        <time>2023-03-22T10:04:30Z</time>
      </trkpt>
      <trkpt lat="44.18818" lon="7.48387">
        <ele>1890.57</ele>
        <time>2023-03-22T10:04:35Z</time>
      </trkpt>
      <trkpt lat="44.18823" lon="7.48411">
        <ele>1885.76</ele>
        <time>2023-03-22T10:04:40Z</time>
      </trkpt>
      <trkpt lat="44.18821" lon="7.48407">
        <ele>1883.84</ele>
        <time>2023-03-22T10:05:01Z</time>
      </trkpt>
      <trkpt lat="44.18822" lon="7.48409">
        <ele>1885.28</ele>
        <time>2023-03-22T10:05:17Z</time>
      </trkpt>
      <trkpt lat="44.1882" lon="7.4842">
        <ele>1885.28</ele>
        <time>2023-03-22T10:05:26Z</time>
      </trkpt>
      <trkpt lat="44.18834" lon="7.48431">
        <ele>1880</ele>
        <time>2023-03-22T10:05:31Z</time>
      </trkpt>
      <trkpt lat="44.18845" lon="7.48431">
        <ele>1869.9</ele>
        <time>2023-03-22T10:05:38Z</time>
      </trkpt>
      <trkpt lat="44.18854" lon="7.48426">
        <ele>1862.69</ele>
        <time>2023-03-22T10:05:44Z</time>
      </trkpt>
      <trkpt lat="44.1886" lon="7.48458">
        <ele>1854.52</ele>
        <time>2023-03-22T10:05:52Z</time>
      </trkpt>
      <trkpt lat="44.18861" lon="7.4849">
        <ele>1846.35</ele>
        <time>2023-03-22T10:05:57Z</time>
      </trkpt>
      <trkpt lat="44.18862" lon="7.48496">
        <ele>1845.39</ele>
        <time>2023-03-22T10:06:03Z</time>
      </trkpt>
      <trkpt lat="44.18864" lon="7.48497">
        <ele>1848.27</ele>
        <time>2023-03-22T10:06:25Z</time>
      </trkpt>
      <trkpt lat="44.18871" lon="7.48489">
        <ele>1847.31</ele>
        <time>2023-03-22T10:06:31Z</time>
      </trkpt>
      <trkpt lat="44.18877" lon="7.4851">
        <ele>1840.1</ele>
        <time>2023-03-22T10:06:36Z</time>
      </trkpt>
      <trkpt lat="44.18878" lon="7.48538">
        <ele>1834.81</ele>
        <time>2023-03-22T10:06:40Z</time>
      </trkpt>
      <trkpt lat="44.18892" lon="7.48546">
        <ele>1826.64</ele>
        <time>2023-03-22T10:06:46Z</time>
      </trkpt>
      <trkpt lat="44.18908" lon="7.48563">
        <ele>1821.35</ele>
        <time>2023-03-22T10:06:51Z</time>
      </trkpt>
      <trkpt lat="44.18916" lon="7.48588">
        <ele>1815.59</ele>
        <time>2023-03-22T10:06:57Z</time>
      </trkpt>
      <trkpt lat="44.18915" lon="7.48591">
        <ele>1815.11</ele>
        <time>2023-03-22T10:06:59Z</time>
      </trkpt>
      <trkpt lat="44.18913" lon="7.48607">
        <ele>1812.7</ele>
        <time>2023-03-22T10:07:06Z</time>
      </trkpt>
      <trkpt lat="44.18912" lon="7.48613">
        <ele>1812.22</ele>
        <time>2023-03-22T10:07:09Z</time>
      </trkpt>
      <trkpt lat="44.18917" lon="7.48618">
        <ele>1810.3</ele>
        <time>2023-03-22T10:07:13Z</time>
      </trkpt>
      <trkpt lat="44.18932" lon="7.48633">
        <ele>1799.73</ele>
        <time>2023-03-22T10:07:20Z</time>
      </trkpt>
      <trkpt lat="44.18938" lon="7.48626">
        <ele>1797.32</ele>
        <time>2023-03-22T10:07:26Z</time>
      </trkpt>
      <trkpt lat="44.18948" lon="7.48643">
        <ele>1792.52</ele>
        <time>2023-03-22T10:07:32Z</time>
      </trkpt>
      <trkpt lat="44.18952" lon="7.48642">
        <ele>1788.67</ele>
        <time>2023-03-22T10:07:37Z</time>
      </trkpt>
      <trkpt lat="44.18959" lon="7.48656">
        <ele>1783.38</ele>
        <time>2023-03-22T10:07:43Z</time>
      </trkpt>
      <trkpt lat="44.18963" lon="7.48661">
        <ele>1781.46</ele>
        <time>2023-03-22T10:07:45Z</time>
      </trkpt>
      <trkpt lat="44.18981" lon="7.48673">
        <ele>1772.33</ele>
        <time>2023-03-22T10:07:52Z</time>
      </trkpt>
      <trkpt lat="44.18982" lon="7.48674">
        <ele>1770.41</ele>
        <time>2023-03-22T10:07:56Z</time>
      </trkpt>
      <trkpt lat="44.18989" lon="7.48682">
        <ele>1768.48</ele>
        <time>2023-03-22T10:08:00Z</time>
      </trkpt>
      <trkpt lat="44.18992" lon="7.48683">
        <ele>1766.56</ele>
        <time>2023-03-22T10:08:06Z</time>
      </trkpt>
      <trkpt lat="44.18997" lon="7.48665">
        <ele>1763.68</ele>
        <time>2023-03-22T10:08:11Z</time>
      </trkpt>
      <trkpt lat="44.19009" lon="7.48658">
        <ele>1762.23</ele>
        <time>2023-03-22T10:08:16Z</time>
      </trkpt>
      <trkpt lat="44.19015" lon="7.4866">
        <ele>1761.75</ele>
        <time>2023-03-22T10:08:18Z</time>
      </trkpt>
      <trkpt lat="44.19023" lon="7.48679">
        <ele>1756.47</ele>
        <time>2023-03-22T10:08:24Z</time>
      </trkpt>
      <trkpt lat="44.19043" lon="7.48686">
        <ele>1756.47</ele>
        <time>2023-03-22T10:08:31Z</time>
      </trkpt>
      <trkpt lat="44.19046" lon="7.48688">
        <ele>1755.5</ele>
        <time>2023-03-22T10:08:32Z</time>
      </trkpt>
      <trkpt lat="44.19066" lon="7.48703">
        <ele>1752.62</ele>
        <time>2023-03-22T10:08:37Z</time>
      </trkpt>
      <trkpt lat="44.19087" lon="7.48715">
        <ele>1748.29</ele>
        <time>2023-03-22T10:08:44Z</time>
      </trkpt>
      <trkpt lat="44.19084" lon="7.4872">
        <ele>1747.33</ele>
        <time>2023-03-22T10:08:45Z</time>
      </trkpt>
      <trkpt lat="44.19083" lon="7.4874">
        <ele>1742.53</ele>
        <time>2023-03-22T10:08:50Z</time>
      </trkpt>
      <trkpt lat="44.19093" lon="7.48736">
        <ele>1741.08</ele>
        <time>2023-03-22T10:08:52Z</time>
      </trkpt>
      <trkpt lat="44.19102" lon="7.48732">
        <ele>1739.64</ele>
        <time>2023-03-22T10:08:54Z</time>
      </trkpt>
      <trkpt lat="44.19108" lon="7.4876">
        <ele>1733.39</ele>
        <time>2023-03-22T10:08:59Z</time>
      </trkpt>
      <trkpt lat="44.19115" lon="7.48763">
        <ele>1729.07</ele>
        <time>2023-03-22T10:09:03Z</time>
      </trkpt>
      <trkpt lat="44.19124" lon="7.48753">
        <ele>1724.26</ele>
        <time>2023-03-22T10:09:11Z</time>
      </trkpt>
      <trkpt lat="44.19126" lon="7.48752">
        <ele>1724.74</ele>
        <time>2023-03-22T10:09:21Z</time>
      </trkpt>
      <trkpt lat="44.1914" lon="7.48733">
        <ele>1723.3</ele>
        <time>2023-03-22T10:09:29Z</time>
      </trkpt>
      <trkpt lat="44.19157" lon="7.48715">
        <ele>1720.42</ele>
        <time>2023-03-22T10:09:34Z</time>
      </trkpt>
      <trkpt lat="44.19178" lon="7.48694">
        <ele>1717.53</ele>
        <time>2023-03-22T10:09:46Z</time>
      </trkpt>
      <trkpt lat="44.19178" lon="7.48695">
        <ele>1718.49</ele>
        <time>2023-03-22T10:10:05Z</time>
      </trkpt>
      <trkpt lat="44.19188" lon="7.48701">
        <ele>1712.25</ele>
        <time>2023-03-22T10:10:11Z</time>
      </trkpt>
      <trkpt lat="44.19191" lon="7.48699">
        <ele>1711.76</ele>
        <time>2023-03-22T10:10:12Z</time>
      </trkpt>
      <trkpt lat="44.19204" lon="7.48695">
        <ele>1708.88</ele>
        <time>2023-03-22T10:10:18Z</time>
      </trkpt>
      <trkpt lat="44.19204" lon="7.48711">
        <ele>1703.59</ele>
        <time>2023-03-22T10:10:22Z</time>
      </trkpt>
      <trkpt lat="44.19199" lon="7.4872">
        <ele>1701.19</ele>
        <time>2023-03-22T10:10:24Z</time>
      </trkpt>
      <trkpt lat="44.1921" lon="7.48728">
        <ele>1694.94</ele>
        <time>2023-03-22T10:10:28Z</time>
      </trkpt>
      <trkpt lat="44.19217" lon="7.48727">
        <ele>1693.02</ele>
        <time>2023-03-22T10:10:30Z</time>
      </trkpt>
      <trkpt lat="44.19229" lon="7.48744">
        <ele>1683.41</ele>
        <time>2023-03-22T10:10:36Z</time>
      </trkpt>
      <trkpt lat="44.19228" lon="7.48759">
        <ele>1678.12</ele>
        <time>2023-03-22T10:10:42Z</time>
      </trkpt>
      <trkpt lat="44.1923" lon="7.48763">
        <ele>1678.6</ele>
        <time>2023-03-22T10:10:51Z</time>
      </trkpt>
      <trkpt lat="44.19222" lon="7.48807">
        <ele>1674.27</ele>
        <time>2023-03-22T10:11:01Z</time>
      </trkpt>
      <trkpt lat="44.19236" lon="7.48803">
        <ele>1670.43</ele>
        <time>2023-03-22T10:11:07Z</time>
      </trkpt>
      <trkpt lat="44.19241" lon="7.48795">
        <ele>1668.51</ele>
        <time>2023-03-22T10:11:09Z</time>
      </trkpt>
      <trkpt lat="44.19248" lon="7.48805">
        <ele>1663.22</ele>
        <time>2023-03-22T10:11:13Z</time>
      </trkpt>
      <trkpt lat="44.19246" lon="7.48821">
        <ele>1659.85</ele>
        <time>2023-03-22T10:11:16Z</time>
      </trkpt>
      <trkpt lat="44.19256" lon="7.48821">
        <ele>1654.09</ele>
        <time>2023-03-22T10:11:22Z</time>
      </trkpt>
      <trkpt lat="44.19266" lon="7.48824">
        <ele>1647.84</ele>
        <time>2023-03-22T10:11:28Z</time>
      </trkpt>
      <trkpt lat="44.19277" lon="7.4883">
        <ele>1643.51</ele>
        <time>2023-03-22T10:11:32Z</time>
      </trkpt>
      <trkpt lat="44.19278" lon="7.48835">
        <ele>1642.07</ele>
        <time>2023-03-22T10:11:33Z</time>
      </trkpt>
      <trkpt lat="44.19288" lon="7.48864">
        <ele>1635.34</ele>
        <time>2023-03-22T10:11:41Z</time>
      </trkpt>
      <trkpt lat="44.19307" lon="7.4887">
        <ele>1630.53</ele>
        <time>2023-03-22T10:11:46Z</time>
      </trkpt>
      <trkpt lat="44.19315" lon="7.4889">
        <ele>1625.25</ele>
        <time>2023-03-22T10:11:51Z</time>
      </trkpt>
      <trkpt lat="44.19327" lon="7.48919">
        <ele>1621.88</ele>
        <time>2023-03-22T10:11:55Z</time>
      </trkpt>
      <trkpt lat="44.19336" lon="7.48935">
        <ele>1620.92</ele>
        <time>2023-03-22T10:11:57Z</time>
      </trkpt>
      <trkpt lat="44.19352" lon="7.48956">
        <ele>1619.48</ele>
        <time>2023-03-22T10:12:01Z</time>
      </trkpt>
      <trkpt lat="44.19372" lon="7.48996">
        <ele>1616.59</ele>
        <time>2023-03-22T10:12:07Z</time>
      </trkpt>
      <trkpt lat="44.19398" lon="7.4902">
        <ele>1618.04</ele>
        <time>2023-03-22T10:12:15Z</time>
      </trkpt>
      <trkpt lat="44.19398" lon="7.49023">
        <ele>1617.07</ele>
        <time>2023-03-22T10:12:29Z</time>
      </trkpt>
      <trkpt lat="44.19398" lon="7.49025">
        <ele>1619</ele>
        <time>2023-03-22T10:12:45Z</time>
      </trkpt>
      <trkpt lat="44.19397" lon="7.49023">
        <ele>1620.44</ele>
        <time>2023-03-22T10:13:09Z</time>
      </trkpt>
      <trkpt lat="44.19398" lon="7.49025">
        <ele>1620.44</ele>
        <time>2023-03-22T10:13:17Z</time>
      </trkpt>
      <trkpt lat="44.19409" lon="7.49017">
        <ele>1617.56</ele>
        <time>2023-03-22T10:13:24Z</time>
      </trkpt>
      <trkpt lat="44.1941" lon="7.49014">
        <ele>1617.07</ele>
        <time>2023-03-22T10:13:25Z</time>
      </trkpt>
      <trkpt lat="44.19417" lon="7.49014">
        <ele>1616.11</ele>
        <time>2023-03-22T10:13:27Z</time>
      </trkpt>
      <trkpt lat="44.19419" lon="7.49017">
        <ele>1615.63</ele>
        <time>2023-03-22T10:13:28Z</time>
      </trkpt>
      <trkpt lat="44.1942" lon="7.49019">
        <ele>1615.63</ele>
        <time>2023-03-22T10:13:29Z</time>
      </trkpt>
      <trkpt lat="44.19422" lon="7.49019">
        <ele>1616.59</ele>
        <time>2023-03-22T10:13:32Z</time>
      </trkpt>
      <trkpt lat="44.19434" lon="7.49015">
        <ele>1615.15</ele>
        <time>2023-03-22T10:13:36Z</time>
      </trkpt>
      <trkpt lat="44.19437" lon="7.49017">
        <ele>1615.15</ele>
        <time>2023-03-22T10:13:37Z</time>
      </trkpt>
      <trkpt lat="44.19439" lon="7.49019">
        <ele>1614.67</ele>
        <time>2023-03-22T10:13:38Z</time>
      </trkpt>
      <trkpt lat="44.19441" lon="7.49021">
        <ele>1614.67</ele>
        <time>2023-03-22T10:13:39Z</time>
      </trkpt>
      <trkpt lat="44.19442" lon="7.49021">
        <ele>1615.63</ele>
        <time>2023-03-22T10:13:49Z</time>
      </trkpt>
      <trkpt lat="44.19441" lon="7.49018">
        <ele>1616.59</ele>
        <time>2023-03-22T10:14:08Z</time>
      </trkpt>
      <trkpt lat="44.19441" lon="7.4902">
        <ele>1617.56</ele>
        <time>2023-03-22T10:14:24Z</time>
      </trkpt>
      <trkpt lat="44.19442" lon="7.49018">
        <ele>1617.56</ele>
        <time>2023-03-22T10:14:42Z</time>
      </trkpt>
      <trkpt lat="44.19446" lon="7.49022">
        <ele>1618.52</ele>
        <time>2023-03-22T10:15:03Z</time>
      </trkpt>
      <trkpt lat="44.19442" lon="7.49024">
        <ele>1618.04</ele>
        <time>2023-03-22T10:15:19Z</time>
      </trkpt>
      <trkpt lat="44.19443" lon="7.49022">
        <ele>1618.04</ele>
        <time>2023-03-22T10:15:37Z</time>
      </trkpt>
      <trkpt lat="44.19441" lon="7.49021">
        <ele>1615.63</ele>
        <time>2023-03-22T10:16:03Z</time>
      </trkpt>
      <trkpt lat="44.19441" lon="7.49021">
        <ele>1614.67</ele>
        <time>2023-03-22T10:16:20Z</time>
      </trkpt>
      <trkpt lat="44.19442" lon="7.49022">
        <ele>1614.67</ele>
        <time>2023-03-22T10:16:37Z</time>
      </trkpt>
      <trkpt lat="44.19451" lon="7.49039">
        <ele>1612.27</ele>
        <time>2023-03-22T10:16:51Z</time>
      </trkpt>
      <trkpt lat="44.19452" lon="7.4904">
        <ele>1612.27</ele>
        <time>2023-03-22T10:16:54Z</time>
      </trkpt>
      <trkpt lat="44.19453" lon="7.49041">
        <ele>1612.75</ele>
        <time>2023-03-22T10:16:56Z</time>
      </trkpt>
      <trkpt lat="44.19452" lon="7.49054">
        <ele>1611.79</ele>
        <time>2023-03-22T10:17:01Z</time>
      </trkpt>
      <trkpt lat="44.19437" lon="7.4909">
        <ele>1608.42</ele>
        <time>2023-03-22T10:17:10Z</time>
      </trkpt>
      <trkpt lat="44.19446" lon="7.49108">
        <ele>1603.14</ele>
        <time>2023-03-22T10:17:15Z</time>
      </trkpt>
      <trkpt lat="44.19453" lon="7.49125">
        <ele>1595.45</ele>
        <time>2023-03-22T10:17:21Z</time>
      </trkpt>
      <trkpt lat="44.1946" lon="7.49135">
        <ele>1589.2</ele>
        <time>2023-03-22T10:17:26Z</time>
      </trkpt>
      <trkpt lat="44.19461" lon="7.49137">
        <ele>1587.75</ele>
        <time>2023-03-22T10:17:28Z</time>
      </trkpt>
      <trkpt lat="44.19472" lon="7.49132">
        <ele>1583.43</ele>
        <time>2023-03-22T10:17:35Z</time>
      </trkpt>
      <trkpt lat="44.19473" lon="7.49141">
        <ele>1576.7</ele>
        <time>2023-03-22T10:17:44Z</time>
      </trkpt>
      <trkpt lat="44.19474" lon="7.49145">
        <ele>1573.33</ele>
        <time>2023-03-22T10:17:54Z</time>
      </trkpt>
      <trkpt lat="44.19472" lon="7.49147">
        <ele>1570.93</ele>
        <time>2023-03-22T10:18:01Z</time>
      </trkpt>
      <trkpt lat="44.19472" lon="7.49157">
        <ele>1562.76</ele>
        <time>2023-03-22T10:18:10Z</time>
      </trkpt>
      <trkpt lat="44.19476" lon="7.49162">
        <ele>1554.11</ele>
        <time>2023-03-22T10:18:20Z</time>
      </trkpt>
      <trkpt lat="44.19475" lon="7.49166">
        <ele>1548.82</ele>
        <time>2023-03-22T10:18:32Z</time>
      </trkpt>
      <trkpt lat="44.19476" lon="7.49175">
        <ele>1547.38</ele>
        <time>2023-03-22T10:18:38Z</time>
      </trkpt>
      <trkpt lat="44.19481" lon="7.49183">
        <ele>1548.82</ele>
        <time>2023-03-22T10:18:46Z</time>
      </trkpt>
      <trkpt lat="44.19483" lon="7.49187">
        <ele>1553.15</ele>
        <time>2023-03-22T10:18:58Z</time>
      </trkpt>
      <trkpt lat="44.19486" lon="7.49187">
        <ele>1553.15</ele>
        <time>2023-03-22T10:19:04Z</time>
      </trkpt>
      <trkpt lat="44.19507" lon="7.49193">
        <ele>1549.78</ele>
        <time>2023-03-22T10:19:12Z</time>
      </trkpt>
      <trkpt lat="44.19508" lon="7.49194">
        <ele>1549.78</ele>
        <time>2023-03-22T10:19:13Z</time>
      </trkpt>
      <trkpt lat="44.19501" lon="7.49208">
        <ele>1544.5</ele>
        <time>2023-03-22T10:19:20Z</time>
      </trkpt>
      <trkpt lat="44.19508" lon="7.49216">
        <ele>1540.17</ele>
        <time>2023-03-22T10:19:25Z</time>
      </trkpt>
      <trkpt lat="44.19509" lon="7.49231">
        <ele>1531.52</ele>
        <time>2023-03-22T10:19:32Z</time>
      </trkpt>
      <trkpt lat="44.1951" lon="7.49232">
        <ele>1530.56</ele>
        <time>2023-03-22T10:19:34Z</time>
      </trkpt>
      <trkpt lat="44.19509" lon="7.49238">
        <ele>1529.59</ele>
        <time>2023-03-22T10:19:38Z</time>
      </trkpt>
      <trkpt lat="44.19521" lon="7.4925">
        <ele>1525.27</ele>
        <time>2023-03-22T10:19:44Z</time>
      </trkpt>
      <trkpt lat="44.19524" lon="7.49251">
        <ele>1525.27</ele>
        <time>2023-03-22T10:19:48Z</time>
      </trkpt>
      <trkpt lat="44.19524" lon="7.49257">
        <ele>1523.35</ele>
        <time>2023-03-22T10:19:50Z</time>
      </trkpt>
      <trkpt lat="44.1952" lon="7.49261">
        <ele>1521.9</ele>
        <time>2023-03-22T10:19:51Z</time>
      </trkpt>
      <trkpt lat="44.19513" lon="7.49269">
        <ele>1519.98</ele>
        <time>2023-03-22T10:19:53Z</time>
      </trkpt>
      <trkpt lat="44.19512" lon="7.49272">
        <ele>1519.5</ele>
        <time>2023-03-22T10:19:54Z</time>
      </trkpt>
      <trkpt lat="44.19515" lon="7.49276">
        <ele>1519.98</ele>
        <time>2023-03-22T10:20:03Z</time>
      </trkpt>
      <trkpt lat="44.19518" lon="7.49279">
        <ele>1521.9</ele>
        <time>2023-03-22T10:20:12Z</time>
      </trkpt>
      <trkpt lat="44.19517" lon="7.4928">
        <ele>1521.9</ele>
        <time>2023-03-22T10:20:13Z</time>
      </trkpt>
      <trkpt lat="44.19516" lon="7.49281">
        <ele>1521.9</ele>
        <time>2023-03-22T10:20:14Z</time>
      </trkpt>
      <trkpt lat="44.19513" lon="7.49286">
        <ele>1521.9</ele>
        <time>2023-03-22T10:20:18Z</time>
      </trkpt>
      <trkpt lat="44.19513" lon="7.49289">
        <ele>1521.42</ele>
        <time>2023-03-22T10:20:19Z</time>
      </trkpt>
      <trkpt lat="44.19512" lon="7.49293">
        <ele>1520.46</ele>
        <time>2023-03-22T10:20:20Z</time>
      </trkpt>
      <trkpt lat="44.19512" lon="7.49296">
        <ele>1519.98</ele>
        <time>2023-03-22T10:20:21Z</time>
      </trkpt>
      <trkpt lat="44.19513" lon="7.49298">
        <ele>1519.5</ele>
        <time>2023-03-22T10:20:22Z</time>
      </trkpt>
      <trkpt lat="44.19513" lon="7.493">
        <ele>1518.54</ele>
        <time>2023-03-22T10:20:23Z</time>
      </trkpt>
      <trkpt lat="44.19513" lon="7.49302">
        <ele>1518.06</ele>
        <time>2023-03-22T10:20:24Z</time>
      </trkpt>
      <trkpt lat="44.19512" lon="7.49305">
        <ele>1517.58</ele>
        <time>2023-03-22T10:20:25Z</time>
      </trkpt>
      <trkpt lat="44.19514" lon="7.49321">
        <ele>1513.25</ele>
        <time>2023-03-22T10:20:33Z</time>
      </trkpt>
      <trkpt lat="44.19515" lon="7.49322">
        <ele>1512.29</ele>
        <time>2023-03-22T10:20:35Z</time>
      </trkpt>
      <trkpt lat="44.19514" lon="7.49324">
        <ele>1511.81</ele>
        <time>2023-03-22T10:20:36Z</time>
      </trkpt>
      <trkpt lat="44.19514" lon="7.49326">
        <ele>1511.81</ele>
        <time>2023-03-22T10:20:37Z</time>
      </trkpt>
      <trkpt lat="44.19513" lon="7.49345">
        <ele>1507.97</ele>
        <time>2023-03-22T10:20:47Z</time>
      </trkpt>
      <trkpt lat="44.19508" lon="7.49358">
        <ele>1503.16</ele>
        <time>2023-03-22T10:20:59Z</time>
      </trkpt>
      <trkpt lat="44.19511" lon="7.4936">
        <ele>1501.72</ele>
        <time>2023-03-22T10:21:05Z</time>
      </trkpt>
      <trkpt lat="44.19513" lon="7.4936">
        <ele>1501.24</ele>
        <time>2023-03-22T10:21:06Z</time>
      </trkpt>
      <trkpt lat="44.19517" lon="7.4936">
        <ele>1500.76</ele>
        <time>2023-03-22T10:21:08Z</time>
      </trkpt>
      <trkpt lat="44.19518" lon="7.49363">
        <ele>1500.27</ele>
        <time>2023-03-22T10:21:10Z</time>
      </trkpt>
      <trkpt lat="44.19517" lon="7.49367">
        <ele>1498.83</ele>
        <time>2023-03-22T10:21:11Z</time>
      </trkpt>
      <trkpt lat="44.19515" lon="7.49371">
        <ele>1497.87</ele>
        <time>2023-03-22T10:21:12Z</time>
      </trkpt>
      <trkpt lat="44.19514" lon="7.49376">
        <ele>1497.39</ele>
        <time>2023-03-22T10:21:13Z</time>
      </trkpt>
      <trkpt lat="44.19513" lon="7.49382">
        <ele>1496.43</ele>
        <time>2023-03-22T10:21:14Z</time>
      </trkpt>
      <trkpt lat="44.19513" lon="7.49387">
        <ele>1495.47</ele>
        <time>2023-03-22T10:21:15Z</time>
      </trkpt>
      <trkpt lat="44.19513" lon="7.49393">
        <ele>1495.47</ele>
        <time>2023-03-22T10:21:16Z</time>
      </trkpt>
      <trkpt lat="44.19513" lon="7.49398">
        <ele>1494.51</ele>
        <time>2023-03-22T10:21:17Z</time>
      </trkpt>
      <trkpt lat="44.19513" lon="7.49404">
        <ele>1494.03</ele>
        <time>2023-03-22T10:21:18Z</time>
      </trkpt>
      <trkpt lat="44.19512" lon="7.49408">
        <ele>1493.55</ele>
        <time>2023-03-22T10:21:19Z</time>
      </trkpt>
      <trkpt lat="44.19513" lon="7.49413">
        <ele>1493.06</ele>
        <time>2023-03-22T10:21:20Z</time>
      </trkpt>
      <trkpt lat="44.1952" lon="7.49411">
        <ele>1489.22</ele>
        <time>2023-03-22T10:21:25Z</time>
      </trkpt>
      <trkpt lat="44.19522" lon="7.49412">
        <ele>1488.26</ele>
        <time>2023-03-22T10:21:28Z</time>
      </trkpt>
      <trkpt lat="44.19528" lon="7.4942">
        <ele>1482.97</ele>
        <time>2023-03-22T10:21:34Z</time>
      </trkpt>
      <trkpt lat="44.19531" lon="7.49419">
        <ele>1482.97</ele>
        <time>2023-03-22T10:21:42Z</time>
      </trkpt>
      <trkpt lat="44.19538" lon="7.49437">
        <ele>1479.13</ele>
        <time>2023-03-22T10:21:49Z</time>
      </trkpt>
      <trkpt lat="44.1954" lon="7.49442">
        <ele>1478.65</ele>
        <time>2023-03-22T10:21:50Z</time>
      </trkpt>
      <trkpt lat="44.19549" lon="7.49441">
        <ele>1472.88</ele>
        <time>2023-03-22T10:21:55Z</time>
      </trkpt>
      <trkpt lat="44.19561" lon="7.49465">
        <ele>1467.59</ele>
        <time>2023-03-22T10:22:02Z</time>
      </trkpt>
      <trkpt lat="44.19575" lon="7.49473">
        <ele>1460.86</ele>
        <time>2023-03-22T10:22:08Z</time>
      </trkpt>
      <trkpt lat="44.1958" lon="7.49478">
        <ele>1459.42</ele>
        <time>2023-03-22T10:22:10Z</time>
      </trkpt>
      <trkpt lat="44.19583" lon="7.49499">
        <ele>1457.02</ele>
        <time>2023-03-22T10:22:14Z</time>
      </trkpt>
      <trkpt lat="44.19597" lon="7.49508">
        <ele>1449.81</ele>
        <time>2023-03-22T10:22:20Z</time>
      </trkpt>
      <trkpt lat="44.1961" lon="7.49519">
        <ele>1444.52</ele>
        <time>2023-03-22T10:22:26Z</time>
      </trkpt>
      <trkpt lat="44.19617" lon="7.49532">
        <ele>1439.71</ele>
        <time>2023-03-22T10:22:31Z</time>
      </trkpt>
      <trkpt lat="44.19619" lon="7.49535">
        <ele>1440.67</ele>
        <time>2023-03-22T10:22:35Z</time>
      </trkpt>
      <trkpt lat="44.19638" lon="7.49531">
        <ele>1437.31</ele>
        <time>2023-03-22T10:22:41Z</time>
      </trkpt>
      <trkpt lat="44.1965" lon="7.49522">
        <ele>1432.02</ele>
        <time>2023-03-22T10:22:47Z</time>
      </trkpt>
      <trkpt lat="44.19648" lon="7.49524">
        <ele>1432.02</ele>
        <time>2023-03-22T10:23:00Z</time>
      </trkpt>
      <trkpt lat="44.19649" lon="7.49525">
        <ele>1434.91</ele>
        <time>2023-03-22T10:23:26Z</time>
      </trkpt>
      <trkpt lat="44.1966" lon="7.49521">
        <ele>1431.06</ele>
        <time>2023-03-22T10:23:33Z</time>
      </trkpt>
      <trkpt lat="44.1967" lon="7.49519">
        <ele>1426.25</ele>
        <time>2023-03-22T10:23:42Z</time>
      </trkpt>
      <trkpt lat="44.19675" lon="7.49523">
        <ele>1424.81</ele>
        <time>2023-03-22T10:23:45Z</time>
      </trkpt>
      <trkpt lat="44.19682" lon="7.49551">
        <ele>1419.04</ele>
        <time>2023-03-22T10:23:53Z</time>
      </trkpt>
      <trkpt lat="44.19684" lon="7.49565">
        <ele>1418.56</ele>
        <time>2023-03-22T10:23:56Z</time>
      </trkpt>
      <trkpt lat="44.19692" lon="7.49562">
        <ele>1417.12</ele>
        <time>2023-03-22T10:24:01Z</time>
      </trkpt>
      <trkpt lat="44.19695" lon="7.49565">
        <ele>1415.68</ele>
        <time>2023-03-22T10:24:04Z</time>
      </trkpt>
      <trkpt lat="44.197" lon="7.49564">
        <ele>1410.39</ele>
        <time>2023-03-22T10:24:08Z</time>
      </trkpt>
      <trkpt lat="44.19708" lon="7.49575">
        <ele>1403.66</ele>
        <time>2023-03-22T10:24:14Z</time>
      </trkpt>
      <trkpt lat="44.19717" lon="7.49577">
        <ele>1399.34</ele>
        <time>2023-03-22T10:24:18Z</time>
      </trkpt>
      <trkpt lat="44.19727" lon="7.49574">
        <ele>1393.57</ele>
        <time>2023-03-22T10:24:23Z</time>
      </trkpt>
      <trkpt lat="44.19731" lon="7.49567">
        <ele>1390.68</ele>
        <time>2023-03-22T10:24:31Z</time>
      </trkpt>
      <trkpt lat="44.19741" lon="7.49585">
        <ele>1386.84</ele>
        <time>2023-03-22T10:24:37Z</time>
      </trkpt>
      <trkpt lat="44.19744" lon="7.4958">
        <ele>1384.92</ele>
        <time>2023-03-22T10:24:39Z</time>
      </trkpt>
      <trkpt lat="44.19747" lon="7.49571">
        <ele>1382.51</ele>
        <time>2023-03-22T10:24:43Z</time>
      </trkpt>
      <trkpt lat="44.19767" lon="7.49573">
        <ele>1378.19</ele>
        <time>2023-03-22T10:24:49Z</time>
      </trkpt>
      <trkpt lat="44.19797" lon="7.49591">
        <ele>1378.67</ele>
        <time>2023-03-22T10:24:56Z</time>
      </trkpt>
      <trkpt lat="44.19804" lon="7.49597">
        <ele>1378.67</ele>
        <time>2023-03-22T10:24:58Z</time>
      </trkpt>
      <trkpt lat="44.19811" lon="7.49599">
        <ele>1377.23</ele>
        <time>2023-03-22T10:25:00Z</time>
      </trkpt>
      <trkpt lat="44.19814" lon="7.49602">
        <ele>1375.3</ele>
        <time>2023-03-22T10:25:04Z</time>
      </trkpt>
      <trkpt lat="44.1981" lon="7.49623">
        <ele>1372.42</ele>
        <time>2023-03-22T10:25:19Z</time>
      </trkpt>
      <trkpt lat="44.1981" lon="7.49623">
        <ele>1372.42</ele>
        <time>2023-03-22T10:25:34Z</time>
      </trkpt>
      <trkpt lat="44.19811" lon="7.49624">
        <ele>1376.75</ele>
        <time>2023-03-22T10:25:47Z</time>
      </trkpt>
      <trkpt lat="44.19812" lon="7.49623">
        <ele>1378.19</ele>
        <time>2023-03-22T10:25:59Z</time>
      </trkpt>
      <trkpt lat="44.19818" lon="7.49621">
        <ele>1378.67</ele>
        <time>2023-03-22T10:26:04Z</time>
      </trkpt>
      <trkpt lat="44.19826" lon="7.4961">
        <ele>1379.15</ele>
        <time>2023-03-22T10:26:14Z</time>
      </trkpt>
      <trkpt lat="44.1983" lon="7.4961">
        <ele>1379.63</ele>
        <time>2023-03-22T10:26:26Z</time>
      </trkpt>
      <trkpt lat="44.19827" lon="7.49607">
        <ele>1377.71</ele>
        <time>2023-03-22T10:26:37Z</time>
      </trkpt>
      <trkpt lat="44.19826" lon="7.49607">
        <ele>1379.15</ele>
        <time>2023-03-22T10:26:53Z</time>
      </trkpt>
      <trkpt lat="44.19827" lon="7.49606">
        <ele>1383.96</ele>
        <time>2023-03-22T10:27:11Z</time>
      </trkpt>
      <trkpt lat="44.19824" lon="7.49611">
        <ele>1384.44</ele>
        <time>2023-03-22T10:27:25Z</time>
      </trkpt>
      <trkpt lat="44.19823" lon="7.49613">
        <ele>1382.99</ele>
        <time>2023-03-22T10:27:36Z</time>
      </trkpt>
    </trkseg>
  </trk>
</gpx>